Observation data for Clyde on 05/24/2020      Previous  Date  Next       Current Mesonet Observations  Soil Data  Daily Summary Page  Observations in Plain Language
KCL2 240500Z 07012KT 19/15 A2988 RMK A01 T01890154  RH  080%=      5-min Rain = 0
KCL2 240501Z 07011KT 19/15 A2988 RMK A01 T01880154  RH  080%=      5-min Rain = 0
KCL2 240502Z 08011KT 19/15 A2988 RMK A01 T01880154  RH  080%=      5-min Rain = 0
KCL2 240503Z 08011KT 19/15 A2988 RMK A01 T01880154  RH  080%=      5-min Rain = 0
KCL2 240504Z 08013KT 19/15 A2988 RMK A01 T01880154  RH  080%=      5-min Rain = 0
KCL2 240505Z 08013KT 19/15 A2987 RMK A01 T01880153  RH  080%=      5-min Rain = 0
KCL2 240506Z 07014KT 19/15 A2987 RMK A01 T01890153  RH  080%=      5-min Rain = 0
KCL2 240507Z 08015KT 19/15 A2987 RMK A01 T01900153  RH  079%=      5-min Rain = 0
KCL2 240508Z 07015KT 19/15 A2987 RMK A01 T01900152  RH  079%=      5-min Rain = 0
KCL2 240509Z 07013KT 19/15 A2987 RMK A01 T01910153  RH  078%=      5-min Rain = 0
KCL2 240510Z 07013KT 19/15 A2987 RMK A01 T01910153  RH  078%=      5-min Rain = 0
KCL2 240511Z 07012G17KT 19/15 A2987 RMK A01 T01920153  RH  078%=      5-min Rain = 0
KCL2 240512Z 07012KT 19/15 A2987 RMK A01 T01910153  RH  078%=      5-min Rain = 0
KCL2 240513Z 08013KT 19/15 A2987 RMK A01 T01910153  RH  078%=      5-min Rain = 0
KCL2 240514Z 07010KT 19/15 A2987 RMK A01 T01920153  RH  078%=      5-min Rain = 0
KCL2 240515Z 08014KT 19/15 A2988 RMK A01 T01920153  RH  078%=      5-min Rain = 0
KCL2 240516Z 07013KT 19/15 A2988 RMK A01 T01920152  RH  077%=      5-min Rain = 0
KCL2 240517Z 07011KT 19/15 A2988 RMK A01 T01920152  RH  077%=      5-min Rain = 0
KCL2 240518Z 07012KT 19/15 A2988 RMK A01 T01920153  RH  078%=      5-min Rain = 0
KCL2 240519Z 07009KT 19/15 A2988 RMK A01 T01920154  RH  079%=      5-min Rain = 0
KCL2 240520Z 07010KT 19/16 A2988 RMK A01 T01910155  RH  079%=      5-min Rain = 0
KCL2 240521Z 06010KT 19/16 A2989 RMK A01 T01900155  RH  080%=      5-min Rain = 0
KCL2 240522Z 06011KT 19/16 A2989 RMK A01 T01900155  RH  080%=      5-min Rain = 0
KCL2 240523Z 07009KT 19/16 A2988 RMK A01 T01890156  RH  081%=      5-min Rain = 0
KCL2 240524Z 07010KT 19/16 A2988 RMK A01 T01890156  RH  081%=      5-min Rain = 0
KCL2 240525Z 07013KT 19/16 A2988 RMK A01 T01890156  RH  081%=      5-min Rain = 0
KCL2 240526Z 07011KT 19/16 A2988 RMK A01 T01890156  RH  081%=      5-min Rain = 0
KCL2 240527Z 07011KT 19/16 A2988 RMK A01 T01880156  RH  082%=      5-min Rain = 0
KCL2 240528Z 07011KT 19/16 A2988 RMK A01 T01880157  RH  082%=      5-min Rain = 0
KCL2 240529Z 07011KT 19/16 A2988 RMK A01 T01880157  RH  082%=      5-min Rain = 0
KCL2 240530Z 08011KT 19/16 A2988 RMK A01 T01880157  RH  082%=      5-min Rain = 0
KCL2 240531Z 08011KT 19/16 A2988 RMK A01 T01880157  RH  082%=      5-min Rain = 0
KCL2 240532Z 08010KT 19/16 A2988 RMK A01 T01880157  RH  082%=      5-min Rain = 0
KCL2 240533Z 08010KT 19/16 A2988 RMK A01 T01880157  RH  082%=      5-min Rain = 0
KCL2 240534Z 07011KT 19/16 A2988 RMK A01 T01880157  RH  082%=      5-min Rain = 0
KCL2 240535Z 08008KT 19/16 A2988 RMK A01 T01880156  RH  082%=      5-min Rain = 0
KCL2 240536Z 07008KT 19/16 A2988 RMK A01 T01880156  RH  082%=      5-min Rain = 0
KCL2 240537Z 08007KT 19/16 A2989 RMK A01 T01880156  RH  082%=      5-min Rain = 0
KCL2 240538Z 06008KT 19/16 A2989 RMK A01 T01880155  RH  081%=      5-min Rain = 0
KCL2 240539Z 06009KT 19/16 A2989 RMK A01 T01890155  RH  081%=      5-min Rain = 0
KCL2 240540Z 06007KT 19/16 A2989 RMK A01 T01900155  RH  081%=      5-min Rain = 0
KCL2 240541Z 07010KT 19/16 A2989 RMK A01 T01900156  RH  081%=      5-min Rain = 0
KCL2 240542Z 06008KT 19/16 A2989 RMK A01 T01900156  RH  081%=      5-min Rain = 0
KCL2 240543Z 07008KT 19/16 A2989 RMK A01 T01890155  RH  081%=      5-min Rain = 0
KCL2 240544Z 07007KT 19/16 A2989 RMK A01 T01900156  RH  081%=      5-min Rain = 0
KCL2 240545Z 06008KT 19/16 A2989 RMK A01 T01900156  RH  081%=      5-min Rain = 0
KCL2 240546Z 06010KT 19/16 A2988 RMK A01 T01900156  RH  081%=      5-min Rain = 0
KCL2 240547Z 06010KT 19/16 A2988 RMK A01 T01900156  RH  081%=      5-min Rain = 0
KCL2 240548Z 06011KT 19/16 A2988 RMK A01 T01900156  RH  081%=      5-min Rain = 0
KCL2 240549Z 06013KT 19/16 A2988 RMK A01 T01900156  RH  081%=      5-min Rain = 0
KCL2 240550Z 07014KT 19/16 A2987 RMK A01 T01900156  RH  080%=      5-min Rain = 0
KCL2 240551Z 06014KT 19/16 A2987 RMK A01 T01910155  RH  080%=      5-min Rain = 0
KCL2 240552Z 07012KT 19/16 A2987 RMK A01 T01910156  RH  080%=      5-min Rain = 0
KCL2 240553Z 06012KT 19/16 A2987 RMK A01 T01910156  RH  080%=      5-min Rain = 0
KCL2 240554Z 07015KT 19/16 A2988 RMK A01 T01910157  RH  081%=      5-min Rain = 0
KCL2 240555Z 06014KT 19/16 A2988 RMK A01 T01900157  RH  081%=      5-min Rain = 0
KCL2 240556Z 06012KT 19/16 A2988 RMK A01 T01900157  RH  081%=      5-min Rain = 0
KCL2 240557Z 06011KT 19/16 A2988 RMK A01 T01890157  RH  081%=      5-min Rain = 0
KCL2 240558Z 06013KT 19/16 A2988 RMK A01 T01890157  RH  082%=      5-min Rain = 0
KCL2 240559Z 06014KT 19/16 A2988 RMK A01 T01880157  RH  082%=      5-min Rain = 0
KCL2 240600Z 06010KT 19/16 A2988 RMK A01 T01880157  RH  082%=      5-min Rain = 0
KCL2 240601Z 06014KT 19/16 A2988 RMK A01 T01880157  RH  082%=      5-min Rain = 0
KCL2 240602Z 06011KT 19/16 A2988 RMK A01 T01880157  RH  083%=      5-min Rain = 0
KCL2 240603Z 07011KT 19/16 A2988 RMK A01 T01880158  RH  083%=      5-min Rain = 0
KCL2 240604Z 07010G15KT 19/16 A2988 RMK A01 T01870157  RH  083%=      5-min Rain = 0
KCL2 240605Z 07009KT 19/16 A2988 RMK A01 T01880158  RH  083%=      5-min Rain = 0
KCL2 240606Z 07009KT 19/16 A2988 RMK A01 T01880158  RH  083%=      5-min Rain = 0
KCL2 240607Z 07010KT 19/16 A2988 RMK A01 T01870157  RH  083%=      5-min Rain = 0
KCL2 240608Z 07013KT 19/16 A2988 RMK A01 T01870157  RH  082%=      5-min Rain = 0
KCL2 240609Z 07010KT 19/16 A2987 RMK A01 T01870156  RH  082%=      5-min Rain = 0
KCL2 240610Z 07011KT 19/16 A2987 RMK A01 T01870157  RH  082%=      5-min Rain = 0
KCL2 240611Z 07011KT 19/16 A2987 RMK A01 T01870157  RH  082%=      5-min Rain = 0
KCL2 240612Z 07013KT 19/16 A2987 RMK A01 T01870157  RH  083%=      5-min Rain = 0
KCL2 240613Z 06013KT 19/16 A2987 RMK A01 T01870157  RH  083%=      5-min Rain = 0
KCL2 240614Z 07013KT 19/16 A2987 RMK A01 T01860157  RH  083%=      5-min Rain = 0
KCL2 240615Z 06012KT 19/16 A2987 RMK A01 T01860157  RH  083%=      5-min Rain = 0
KCL2 240616Z 07012KT 19/16 A2987 RMK A01 T01860157  RH  083%=      5-min Rain = 0
KCL2 240617Z 07012KT 19/16 A2987 RMK A01 T01860157  RH  083%=      5-min Rain = 0
KCL2 240618Z 07010KT 19/16 A2987 RMK A01 T01860157  RH  083%=      5-min Rain = 0
KCL2 240619Z 08008KT 19/16 A2987 RMK A01 T01860157  RH  084%=      5-min Rain = 0
KCL2 240620Z 08009KT 19/16 A2987 RMK A01 T01850158  RH  084%=      5-min Rain = 0
KCL2 240621Z 08009KT 19/16 A2987 RMK A01 T01850158  RH  084%=      5-min Rain = 0
KCL2 240622Z 09009KT 19/16 A2987 RMK A01 T01850158  RH  084%=      5-min Rain = 0
KCL2 240623Z 08008KT 19/16 A2987 RMK A01 T01850158  RH  084%=      5-min Rain = 0
KCL2 240624Z 08010KT 19/16 A2987 RMK A01 T01850158  RH  084%=      5-min Rain = 0
KCL2 240625Z 09009KT 18/16 A2987 RMK A01 T01840157  RH  084%=      5-min Rain = 0
KCL2 240626Z 09010KT 18/16 A2987 RMK A01 T01840157  RH  084%=      5-min Rain = 0
KCL2 240627Z 09011KT 19/16 A2987 RMK A01 T01850156  RH  084%=      5-min Rain = 0
KCL2 240628Z 08011KT 19/16 A2987 RMK A01 T01850156  RH  083%=      5-min Rain = 0
KCL2 240629Z 08011KT 19/16 A2987 RMK A01 T01850155  RH  083%=      5-min Rain = 0
KCL2 240630Z 08012KT 18/16 A2987 RMK A01 T01840155  RH  083%=      5-min Rain = 0
KCL2 240631Z 08009KT 19/16 A2987 RMK A01 T01850156  RH  083%=      5-min Rain = 0
KCL2 240632Z 08008KT 19/16 A2987 RMK A01 T01850156  RH  083%=      5-min Rain = 0
KCL2 240633Z 08010KT 19/16 A2987 RMK A01 T01850155  RH  083%=      5-min Rain = 0
KCL2 240634Z 08010KT 19/16 A2987 RMK A01 T01850155  RH  083%=      5-min Rain = 0
KCL2 240635Z 08010KT 19/16 A2987 RMK A01 T01850155  RH  083%=      5-min Rain = 0
KCL2 240636Z 08010KT 18/16 A2987 RMK A01 T01840155  RH  083%=      5-min Rain = 0
KCL2 240637Z 07011KT 18/16 A2987 RMK A01 T01840155  RH  083%=      5-min Rain = 0
KCL2 240638Z 07011KT 18/16 A2987 RMK A01 T01840155  RH  083%=      5-min Rain = 0
KCL2 240639Z 07011KT 18/16 A2987 RMK A01 T01840155  RH  083%=      5-min Rain = 0
KCL2 240640Z 07010KT 18/16 A2987 RMK A01 T01840155  RH  083%=      5-min Rain = 0
KCL2 240641Z 07010KT 18/16 A2987 RMK A01 T01840155  RH  083%=      5-min Rain = 0
KCL2 240642Z 07011KT 18/16 A2987 RMK A01 T01840155  RH  083%=      5-min Rain = 0
KCL2 240643Z 08008KT 18/15 A2987 RMK A01 T01840154  RH  083%=      5-min Rain = 0
KCL2 240644Z 09008KT 18/15 A2987 RMK A01 T01840154  RH  083%=      5-min Rain = 0
KCL2 240645Z 09009KT 18/16 A2987 RMK A01 T01840155  RH  083%=      5-min Rain = 0
KCL2 240646Z 08010KT 18/16 A2987 RMK A01 T01830155  RH  083%=      5-min Rain = 0
KCL2 240647Z 07011KT 18/15 A2987 RMK A01 T01830154  RH  083%=      5-min Rain = 0
KCL2 240648Z 08010KT 18/15 A2986 RMK A01 T01830154  RH  083%=      5-min Rain = 0
KCL2 240649Z 08010KT 18/15 A2986 RMK A01 T01830154  RH  083%=      5-min Rain = 0
KCL2 240650Z 08010KT 18/15 A2986 RMK A01 T01820154  RH  083%=      5-min Rain = 0
KCL2 240651Z 08009KT 18/15 A2986 RMK A01 T01820154  RH  083%=      5-min Rain = 0
KCL2 240652Z 09009KT 18/15 A2986 RMK A01 T01820154  RH  084%=      5-min Rain = 0
KCL2 240653Z 08010KT 18/15 A2986 RMK A01 T01820154  RH  084%=      5-min Rain = 0
KCL2 240654Z 07008KT 18/15 A2986 RMK A01 T01820154  RH  083%=      5-min Rain = 0
KCL2 240655Z 07008KT 18/15 A2986 RMK A01 T01820153  RH  084%=      5-min Rain = 0
KCL2 240656Z 07008KT 18/15 A2986 RMK A01 T01810153  RH  084%=      5-min Rain = 0
KCL2 240657Z 07009KT 18/15 A2986 RMK A01 T01810154  RH  084%=      5-min Rain = 0
KCL2 240658Z 07010KT 18/15 A2986 RMK A01 T01810153  RH  083%=      5-min Rain = 0
KCL2 240659Z 07010KT 18/15 A2986 RMK A01 T01820152  RH  083%=      5-min Rain = 0
KCL2 240700Z 08009KT 18/15 A2986 RMK A01 T01820152  RH  082%=      5-min Rain = 0
KCL2 240701Z 08008KT 18/15 A2986 RMK A01 T01820152  RH  083%=      5-min Rain = 0
KCL2 240702Z 09010KT 18/15 A2987 RMK A01 T01820152  RH  083%=      5-min Rain = 0
KCL2 240703Z 08009KT 18/15 A2986 RMK A01 T01820152  RH  082%=      5-min Rain = 0
KCL2 240704Z 08008KT 18/15 A2986 RMK A01 T01820152  RH  082%=      5-min Rain = 0
KCL2 240705Z 08008KT 18/15 A2987 RMK A01 T01820152  RH  083%=      5-min Rain = 0
KCL2 240706Z 08008KT 18/15 A2986 RMK A01 T01820152  RH  083%=      5-min Rain = 0
KCL2 240707Z 08008KT 18/15 A2986 RMK A01 T01820152  RH  082%=      5-min Rain = 0
KCL2 240708Z 08009KT 18/15 A2986 RMK A01 T01820152  RH  082%=      5-min Rain = 0
KCL2 240709Z 09007KT 18/15 A2986 RMK A01 T01820152  RH  083%=      5-min Rain = 0
KCL2 240710Z 09007KT 18/15 A2987 RMK A01 T01820152  RH  083%=      5-min Rain = 0
KCL2 240711Z 08007KT 18/15 A2987 RMK A01 T01820152  RH  083%=      5-min Rain = 0
KCL2 240712Z 08007KT 18/15 A2986 RMK A01 T01820152  RH  083%=      5-min Rain = 0
KCL2 240713Z 08007KT 18/15 A2986 RMK A01 T01820152  RH  082%=      5-min Rain = 0
KCL2 240714Z 08006KT 18/15 A2986 RMK A01 T01820152  RH  082%=      5-min Rain = 0
KCL2 240715Z 08006KT 18/15 A2987 RMK A01 T01820152  RH  082%=      5-min Rain = 0
KCL2 240716Z 08006KT 18/15 A2987 RMK A01 T01820152  RH  082%=      5-min Rain = 0
KCL2 240717Z 08006KT 18/15 A2987 RMK A01 T01820151  RH  082%=      5-min Rain = 0
KCL2 240718Z 09006KT 18/15 A2987 RMK A01 T01830152  RH  082%=      5-min Rain = 0
KCL2 240719Z 09006KT 18/15 A2987 RMK A01 T01830152  RH  082%=      5-min Rain = 0
KCL2 240720Z 09008KT 18/15 A2987 RMK A01 T01830153  RH  083%=      5-min Rain = 0
KCL2 240721Z 09008KT 18/15 A2987 RMK A01 T01830153  RH  083%=      5-min Rain = 0
KCL2 240722Z 09008KT 18/15 A2986 RMK A01 T01830153  RH  083%=      5-min Rain = 0
KCL2 240723Z 09008KT 18/15 A2986 RMK A01 T01820152  RH  083%=      5-min Rain = 0
KCL2 240724Z 09008KT 18/15 A2986 RMK A01 T01820153  RH  083%=      5-min Rain = 0
KCL2 240725Z 09009KT 18/15 A2986 RMK A01 T01820153  RH  083%=      5-min Rain = 0
KCL2 240726Z 10008KT 18/15 A2986 RMK A01 T01820153  RH  083%=      5-min Rain = 0
KCL2 240727Z 10009KT 18/15 A2986 RMK A01 T01820153  RH  083%=      5-min Rain = 0
KCL2 240728Z 10007KT 18/15 A2986 RMK A01 T01820153  RH  083%=      5-min Rain = 0
KCL2 240729Z 10007KT 18/15 A2986 RMK A01 T01820152  RH  083%=      5-min Rain = 0
KCL2 240730Z 09007KT 18/15 A2985 RMK A01 T01820153  RH  083%=      5-min Rain = 0
KCL2 240731Z 09008KT 18/15 A2985 RMK A01 T01810153  RH  084%=      5-min Rain = 0
KCL2 240732Z 09009KT 18/15 A2985 RMK A01 T01810153  RH  084%=      5-min Rain = 0
KCL2 240733Z 09007KT 18/15 A2985 RMK A01 T01810152  RH  083%=      5-min Rain = 0
KCL2 240734Z 09007KT 18/15 A2985 RMK A01 T01810152  RH  083%=      5-min Rain = 0
KCL2 240735Z 09007KT 18/15 A2985 RMK A01 T01810152  RH  083%=      5-min Rain = 0
KCL2 240736Z 09008KT 18/15 A2985 RMK A01 T01810151  RH  083%=      5-min Rain = 0
KCL2 240737Z 09008KT 18/15 A2985 RMK A01 T01820151  RH  082%=      5-min Rain = 0
KCL2 240738Z 10006KT 18/15 A2985 RMK A01 T01820152  RH  082%=      5-min Rain = 0
KCL2 240739Z 09007KT 18/15 A2985 RMK A01 T01820152  RH  083%=      5-min Rain = 0
KCL2 240740Z 09007KT 18/15 A2985 RMK A01 T01810152  RH  083%=      5-min Rain = 0
KCL2 240741Z 09007KT 18/15 A2985 RMK A01 T01810152  RH  083%=      5-min Rain = 0
KCL2 240742Z 09008KT 18/15 A2985 RMK A01 T01810151  RH  083%=      5-min Rain = 0
KCL2 240743Z 08007KT 18/15 A2985 RMK A01 T01810151  RH  082%=      5-min Rain = 0
KCL2 240744Z 08007KT 18/15 A2985 RMK A01 T01820152  RH  083%=      5-min Rain = 0
KCL2 240745Z 09007KT 18/15 A2985 RMK A01 T01820152  RH  083%=      5-min Rain = 0
KCL2 240746Z 09006KT 18/15 A2985 RMK A01 T01820151  RH  082%=      5-min Rain = 0
KCL2 240747Z 08007KT 18/15 A2985 RMK A01 T01820151  RH  082%=      5-min Rain = 0
KCL2 240748Z 08007KT 18/15 A2985 RMK A01 T01820151  RH  082%=      5-min Rain = 0
KCL2 240749Z 09006KT 18/15 A2985 RMK A01 T01820150  RH  082%=      5-min Rain = 0
KCL2 240750Z 08006KT 18/15 A2985 RMK A01 T01820150  RH  082%=      5-min Rain = 0
KCL2 240751Z 08006KT 18/15 A2985 RMK A01 T01820150  RH  081%=      5-min Rain = 0
KCL2 240752Z 09006KT 18/15 A2985 RMK A01 T01830150  RH  081%=      5-min Rain = 0
KCL2 240753Z 09007KT 18/15 A2985 RMK A01 T01830150  RH  081%=      5-min Rain = 0
KCL2 240754Z 09007KT 18/15 A2985 RMK A01 T01830151  RH  081%=      5-min Rain = 0
KCL2 240755Z 09007KT 18/15 A2985 RMK A01 T01830151  RH  082%=      5-min Rain = 0
KCL2 240756Z 09007KT 18/15 A2985 RMK A01 T01820151  RH  082%=      5-min Rain = 0
KCL2 240757Z 10007KT 18/15 A2985 RMK A01 T01820151  RH  082%=      5-min Rain = 0
KCL2 240758Z 10006KT 18/15 A2985 RMK A01 T01820150  RH  082%=      5-min Rain = 0
KCL2 240759Z 10007KT 18/15 A2985 RMK A01 T01820150  RH  082%=      5-min Rain = 0
KCL2 240800Z 10006KT 18/15 A2985 RMK A01 T01820150  RH  082%=      5-min Rain = 0
KCL2 240801Z 10007KT 18/15 A2985 RMK A01 T01820150  RH  082%=      5-min Rain = 0
KCL2 240802Z 10007KT 18/15 A2985 RMK A01 T01820150  RH  082%=      5-min Rain = 0
KCL2 240803Z 11008KT 18/15 A2985 RMK A01 T01820150  RH  082%=      5-min Rain = 0
KCL2 240804Z 11007KT 18/15 A2985 RMK A01 T01820150  RH  082%=      5-min Rain = 0
KCL2 240805Z 10008KT 18/15 A2985 RMK A01 T01820150  RH  082%=      5-min Rain = 0
KCL2 240806Z 10006KT 18/15 A2985 RMK A01 T01820150  RH  082%=      5-min Rain = 0
KCL2 240807Z 10006KT 18/15 A2985 RMK A01 T01820150  RH  082%=      5-min Rain = 0
KCL2 240808Z 10006KT 18/15 A2985 RMK A01 T01820151  RH  082%=      5-min Rain = 0
KCL2 240809Z 10007KT 18/15 A2985 RMK A01 T01820150  RH  082%=      5-min Rain = 0
KCL2 240810Z 09007KT 18/15 A2985 RMK A01 T01820150  RH  082%=      5-min Rain = 0
KCL2 240811Z 10007KT 18/15 A2985 RMK A01 T01820150  RH  082%=      5-min Rain = 0
KCL2 240812Z 10006KT 18/15 A2985 RMK A01 T01820151  RH  082%=      5-min Rain = 0
KCL2 240813Z 10006KT 18/15 A2985 RMK A01 T01820151  RH  082%=      5-min Rain = 0
KCL2 240814Z 10006KT 18/15 A2985 RMK A01 T01820151  RH  082%=      5-min Rain = 0
KCL2 240815Z 10006KT 18/15 A2985 RMK A01 T01820151  RH  082%=      5-min Rain = 0
KCL2 240816Z 10007KT 18/15 A2985 RMK A01 T01810151  RH  082%=      5-min Rain = 0
KCL2 240817Z 09007KT 18/15 A2985 RMK A01 T01810150  RH  082%=      5-min Rain = 0
KCL2 240818Z 10007KT 18/15 A2984 RMK A01 T01810150  RH  082%=      5-min Rain = 0
KCL2 240819Z 09007KT 18/15 A2984 RMK A01 T01820150  RH  082%=      5-min Rain = 0
KCL2 240820Z 10007KT 18/15 A2984 RMK A01 T01820150  RH  082%=      5-min Rain = 0
KCL2 240821Z 10007KT 18/15 A2984 RMK A01 T01820150  RH  082%=      5-min Rain = 0
KCL2 240822Z 10006KT 18/15 A2984 RMK A01 T01820150  RH  082%=      5-min Rain = 0
KCL2 240823Z 10006KT 18/15 A2984 RMK A01 T01820150  RH  082%=      5-min Rain = 0
KCL2 240824Z 09007KT 18/15 A2984 RMK A01 T01820150  RH  082%=      5-min Rain = 0
KCL2 240825Z 10007KT 18/15 A2984 RMK A01 T01820150  RH  081%=      5-min Rain = 0
KCL2 240826Z 10008KT 18/15 A2984 RMK A01 T01820150  RH  081%=      5-min Rain = 0
KCL2 240827Z 09008KT 18/15 A2984 RMK A01 T01820150  RH  081%=      5-min Rain = 0
KCL2 240828Z 10007KT 18/15 A2984 RMK A01 T01820150  RH  081%=      5-min Rain = 0
KCL2 240829Z 10007KT 18/15 A2984 RMK A01 T01820150  RH  081%=      5-min Rain = 0
KCL2 240830Z 10006KT 18/15 A2984 RMK A01 T01820150  RH  082%=      5-min Rain = 0
KCL2 240831Z 10007KT 18/15 A2984 RMK A01 T01820150  RH  082%=      5-min Rain = 0
KCL2 240832Z 10007KT 18/15 A2984 RMK A01 T01830150  RH  082%=      5-min Rain = 0
KCL2 240833Z 09006KT 18/15 A2984 RMK A01 T01830151  RH  082%=      5-min Rain = 0
KCL2 240834Z 09007KT 18/15 A2984 RMK A01 T01830152  RH  082%=      5-min Rain = 0
KCL2 240835Z 09007KT 18/15 A2984 RMK A01 T01830152  RH  082%=      5-min Rain = 0
KCL2 240836Z 09007KT 18/15 A2984 RMK A01 T01830152  RH  082%=      5-min Rain = 0
KCL2 240837Z 10006KT 18/15 A2984 RMK A01 T01830152  RH  082%=      5-min Rain = 0
KCL2 240838Z 10006KT 18/15 A2984 RMK A01 T01830152  RH  082%=      5-min Rain = 0
KCL2 240839Z 09006KT 18/15 A2984 RMK A01 T01830152  RH  082%=      5-min Rain = 0
KCL2 240840Z 09008KT 18/15 A2984 RMK A01 T01830152  RH  082%=      5-min Rain = 0
KCL2 240841Z 09008KT 18/15 A2984 RMK A01 T01830153  RH  082%=      5-min Rain = 0
KCL2 240842Z 09007KT 18/15 A2984 RMK A01 T01830152  RH  082%=      5-min Rain = 0
KCL2 240843Z 10006KT 18/15 A2984 RMK A01 T01830152  RH  082%=      5-min Rain = 0
KCL2 240844Z 10007KT 18/15 A2984 RMK A01 T01830152  RH  082%=      5-min Rain = 0
KCL2 240845Z 10007KT 18/15 A2984 RMK A01 T01830152  RH  082%=      5-min Rain = 0
KCL2 240846Z 09008KT 18/15 A2983 RMK A01 T01830152  RH  082%=      5-min Rain = 0
KCL2 240847Z 09008KT 18/15 A2983 RMK A01 T01830152  RH  082%=      5-min Rain = 0
KCL2 240848Z 10007KT 18/15 A2984 RMK A01 T01830153  RH  082%=      5-min Rain = 0
KCL2 240849Z 10006KT 18/15 A2984 RMK A01 T01830153  RH  082%=      5-min Rain = 0
KCL2 240850Z 10007KT 18/15 A2984 RMK A01 T01830153  RH  082%=      5-min Rain = 0
KCL2 240851Z 10008KT 18/15 A2984 RMK A01 T01830153  RH  082%=      5-min Rain = 0
KCL2 240852Z 10008KT 18/15 A2984 RMK A01 T01830153  RH  082%=      5-min Rain = 0
KCL2 240853Z 10009KT 18/15 A2984 RMK A01 T01840153  RH  082%=      5-min Rain = 0
KCL2 240854Z 10008KT 18/15 A2983 RMK A01 T01830153  RH  082%=      5-min Rain = 0
KCL2 240855Z 10008KT 18/15 A2984 RMK A01 T01840153  RH  082%=      5-min Rain = 0
KCL2 240856Z 10008KT 18/15 A2984 RMK A01 T01840154  RH  082%=      5-min Rain = 0
KCL2 240857Z 11008KT 18/15 A2984 RMK A01 T01840154  RH  082%=      5-min Rain = 0
KCL2 240858Z 11009KT 19/16 A2984 RMK A01 T01850155  RH  083%=      5-min Rain = 0
KCL2 240859Z 11009KT 19/16 A2984 RMK A01 T01850155  RH  083%=      5-min Rain = 0
KCL2 240900Z 11009KT 19/16 A2984 RMK A01 T01860156  RH  083%=      5-min Rain = 0
KCL2 240901Z 10008KT 19/16 A2984 RMK A01 T01860156  RH  083%=      5-min Rain = 0
KCL2 240902Z 11008KT 19/16 A2984 RMK A01 T01860156  RH  083%=      5-min Rain = 0
KCL2 240903Z 11008KT 19/16 A2984 RMK A01 T01860156  RH  083%=      5-min Rain = 0
KCL2 240904Z 10007KT 19/16 A2984 RMK A01 T01860157  RH  083%=      5-min Rain = 0
KCL2 240905Z 11008KT 19/16 A2984 RMK A01 T01860157  RH  083%=      5-min Rain = 0
KCL2 240906Z 10008KT 19/16 A2984 RMK A01 T01870157  RH  083%=      5-min Rain = 0
KCL2 240907Z 11009KT 19/16 A2984 RMK A01 T01870158  RH  083%=      5-min Rain = 0
KCL2 240908Z 11009KT 19/16 A2984 RMK A01 T01870158  RH  083%=      5-min Rain = 0
KCL2 240909Z 11011KT 19/16 A2984 RMK A01 T01870159  RH  084%=      5-min Rain = 0
KCL2 240910Z 11010KT 19/16 A2984 RMK A01 T01870159  RH  084%=      5-min Rain = 0
KCL2 240911Z 11008KT 19/16 A2984 RMK A01 T01870159  RH  084%=      5-min Rain = 0
KCL2 240912Z 11009KT 19/16 A2984 RMK A01 T01870160  RH  084%=      5-min Rain = 0
KCL2 240913Z 11008KT 19/16 A2984 RMK A01 T01860159  RH  084%=      5-min Rain = 0
KCL2 240914Z 11007KT 19/16 A2984 RMK A01 T01860160  RH  085%=      5-min Rain = 0
KCL2 240915Z 11007KT 19/16 A2984 RMK A01 T01850160  RH  085%=      5-min Rain = 0
KCL2 240916Z 11008KT 19/16 A2984 RMK A01 T01850160  RH  085%=      5-min Rain = 0
KCL2 240917Z 11007KT 18/16 A2984 RMK A01 T01840160  RH  086%=      5-min Rain = 0
KCL2 240918Z 10010KT 18/16 A2984 RMK A01 T01840160  RH  086%=      5-min Rain = 0
KCL2 240919Z 10011KT 18/16 A2984 RMK A01 T01840160  RH  086%=      5-min Rain = 0
KCL2 240920Z 10010KT 18/16 A2984 RMK A01 T01840160  RH  086%=      5-min Rain = 0
KCL2 240921Z 10011KT 18/16 A2984 RMK A01 T01840160  RH  086%=      5-min Rain = 0
KCL2 240922Z 10009KT 18/16 A2985 RMK A01 T01840160  RH  086%=      5-min Rain = 0
KCL2 240923Z 10007KT 18/16 A2985 RMK A01 T01840160  RH  086%=      5-min Rain = 0
KCL2 240924Z 10010KT 18/16 A2985 RMK A01 T01830160  RH  086%=      5-min Rain = 0
KCL2 240925Z 10009KT 18/16 A2984 RMK A01 T01830160  RH  087%=      5-min Rain = 0
KCL2 240926Z 10009KT 18/16 A2984 RMK A01 T01830160  RH  087%=      5-min Rain = 0
KCL2 240927Z 10009KT 18/16 A2985 RMK A01 T01830161  RH  087%=      5-min Rain = 0
KCL2 240928Z 10009KT 18/16 A2985 RMK A01 T01830161  RH  087%=      5-min Rain = 0
KCL2 240929Z 10010KT 18/16 A2985 RMK A01 T01830161  RH  087%=      5-min Rain = 0
KCL2 240930Z 10009KT 18/16 A2985 RMK A01 T01830162  RH  087%=      5-min Rain = 0
KCL2 240931Z 10009KT 18/16 A2985 RMK A01 T01830161  RH  087%=      5-min Rain = 0
KCL2 240932Z 10010KT 18/16 A2985 RMK A01 T01830161  RH  087%=      5-min Rain = 0
KCL2 240933Z 10009KT 18/16 A2985 RMK A01 T01830162  RH  087%=      5-min Rain = 0
KCL2 240934Z 10007KT 18/16 A2985 RMK A01 T01820161  RH  088%=      5-min Rain = 0
KCL2 240935Z 10008KT 18/16 A2985 RMK A01 T01820161  RH  088%=      5-min Rain = 0
KCL2 240936Z 11007KT 18/16 A2985 RMK A01 T01820162  RH  088%=      5-min Rain = 0
KCL2 240937Z 11007KT 18/16 A2985 RMK A01 T01810161  RH  088%=      5-min Rain = 0
KCL2 240938Z 11007KT 18/16 A2985 RMK A01 T01810162  RH  088%=      5-min Rain = 0
KCL2 240939Z 11008KT 18/16 A2985 RMK A01 T01810161  RH  088%=      5-min Rain = 0
KCL2 240940Z 11007KT 18/16 A2985 RMK A01 T01810162  RH  089%=      5-min Rain = 0
KCL2 240941Z 11007KT 18/16 A2985 RMK A01 T01800162  RH  089%=      5-min Rain = 0
KCL2 240942Z 11007KT 18/16 A2985 RMK A01 T01800162  RH  089%=      5-min Rain = 0
KCL2 240943Z 12007KT 18/16 A2985 RMK A01 T01800162  RH  089%=      5-min Rain = 0
KCL2 240944Z 12007KT 18/16 A2985 RMK A01 T01800162  RH  089%=      5-min Rain = 0
KCL2 240945Z 12007KT 18/16 A2985 RMK A01 T01800163  RH  090%=      5-min Rain = 0
KCL2 240946Z 11007KT 18/16 A2985 RMK A01 T01800163  RH  090%=      5-min Rain = 0
KCL2 240947Z 11007KT 18/16 A2985 RMK A01 T01800163  RH  090%=      5-min Rain = 0
KCL2 240948Z 11006KT 18/16 A2985 RMK A01 T01790163  RH  090%=      5-min Rain = 0
KCL2 240949Z 11008KT 18/16 A2985 RMK A01 T01790163  RH  090%=      5-min Rain = 0
KCL2 240950Z 10006KT 18/16 A2985 RMK A01 T01790163  RH  090%=      5-min Rain = 0
KCL2 240951Z 10006KT 18/16 A2985 RMK A01 T01790163  RH  091%=      5-min Rain = 0
KCL2 240952Z 11008KT 18/16 A2985 RMK A01 T01790163  RH  091%=      5-min Rain = 0
KCL2 240953Z 11006KT 18/16 A2985 RMK A01 T01790163  RH  091%=      5-min Rain = 0
KCL2 240954Z 11007KT 18/16 A2985 RMK A01 T01790163  RH  091%=      5-min Rain = 0
KCL2 240955Z 11007KT 18/16 A2985 RMK A01 T01780163  RH  091%=      5-min Rain = 0
KCL2 240956Z 11008KT 18/16 A2985 RMK A01 T01780163  RH  091%=      5-min Rain = 0
KCL2 240957Z 11007KT 18/16 A2985 RMK A01 T01780164  RH  091%=      5-min Rain = 0
KCL2 240958Z 11007KT 18/16 A2985 RMK A01 T01780164  RH  092%=      5-min Rain = 0
KCL2 240959Z 10007KT 18/16 A2985 RMK A01 T01770164  RH  092%=      5-min Rain = 0
KCL2 241000Z 11007KT 18/16 A2985 RMK A01 T01770164  RH  092%=      5-min Rain = 0
KCL2 241001Z 11007KT 18/16 A2985 RMK A01 T01770164  RH  092%=      5-min Rain = 0
KCL2 241002Z 11006KT 18/16 A2985 RMK A01 T01770164  RH  092%=      5-min Rain = 0
KCL2 241003Z 11007KT 18/16 A2985 RMK A01 T01770164  RH  092%=      5-min Rain = 0
KCL2 241004Z 11008KT 18/16 A2985 RMK A01 T01770164  RH  092%=      5-min Rain = 0
KCL2 241005Z 11008KT 18/17 A2985 RMK A01 T01770165  RH  093%=      5-min Rain = 0
KCL2 241006Z 11008KT 18/17 A2985 RMK A01 T01770165  RH  093%=      5-min Rain = 0
KCL2 241007Z 11008KT 18/17 A2985 RMK A01 T01770165  RH  093%=      5-min Rain = 0
KCL2 241008Z 11008KT 18/17 A2985 RMK A01 T01770165  RH  093%=      5-min Rain = 0
KCL2 241009Z 11009KT 18/17 A2985 RMK A01 T01770165  RH  093%=      5-min Rain = 0
KCL2 241010Z 10008KT 18/17 A2985 RMK A01 T01770165  RH  093%=      5-min Rain = 0
KCL2 241011Z 10008KT 18/17 A2985 RMK A01 T01770165  RH  093%=      5-min Rain = 0
KCL2 241012Z 10008KT 18/17 A2985 RMK A01 T01770165  RH  093%=      5-min Rain = 0
KCL2 241013Z 10009KT 18/17 A2985 RMK A01 T01770165  RH  093%=      5-min Rain = 0
KCL2 241014Z 10009KT 18/17 A2984 RMK A01 T01770165  RH  093%=      5-min Rain = 0
KCL2 241015Z 10009KT 18/17 A2984 RMK A01 T01770165  RH  093%=      5-min Rain = 0
KCL2 241016Z 10010KT 18/17 A2984 RMK A01 T01770166  RH  093%=      5-min Rain = 0
KCL2 241017Z 10008KT 18/17 A2984 RMK A01 T01770166  RH  093%=      5-min Rain = 0
KCL2 241018Z 10009KT 18/17 A2984 RMK A01 T01770166  RH  093%=      5-min Rain = 0
KCL2 241019Z 10009KT 18/17 A2984 RMK A01 T01770166  RH  093%=      5-min Rain = 0
KCL2 241020Z 11009KT 18/17 A2984 RMK A01 T01770166  RH  094%=      5-min Rain = 0
KCL2 241021Z 11009KT 18/17 A2984 RMK A01 T01770166  RH  094%=      5-min Rain = 0
KCL2 241022Z 11008KT 18/17 A2984 RMK A01 T01770167  RH  094%=      5-min Rain = 0
KCL2 241023Z 12008KT 18/17 A2985 RMK A01 T01770166  RH  094%=      5-min Rain = 0
KCL2 241024Z 11007KT 18/17 A2985 RMK A01 T01760166  RH  094%=      5-min Rain = 0
KCL2 241025Z 11007KT 18/17 A2984 RMK A01 T01760165  RH  094%=      5-min Rain = 0
KCL2 241026Z 11008KT 18/17 A2984 RMK A01 T01750166  RH  094%=      5-min Rain = 0
KCL2 241027Z 11008KT 18/17 A2985 RMK A01 T01750166  RH  094%=      5-min Rain = 0
KCL2 241028Z 11008KT 18/17 A2985 RMK A01 T01750166  RH  094%=      5-min Rain = 0
KCL2 241029Z 11008KT 18/17 A2984 RMK A01 T01750166  RH  094%=      5-min Rain = 0
KCL2 241030Z 11007KT 18/17 A2984 RMK A01 T01750166  RH  094%=      5-min Rain = 0
KCL2 241031Z 11008KT 18/17 A2985 RMK A01 T01750166  RH  094%=      5-min Rain = 0
KCL2 241032Z 11009KT 18/17 A2985 RMK A01 T01750166  RH  095%=      5-min Rain = 0
KCL2 241033Z 11008KT 17/17 A2985 RMK A01 T01740166  RH  095%=      5-min Rain = 0
KCL2 241034Z 12009KT 18/17 A2985 RMK A01 T01750166  RH  095%=      5-min Rain = 0
KCL2 241035Z 12009KT 17/17 A2985 RMK A01 T01740166  RH  095%=      5-min Rain = 0
KCL2 241036Z 12009KT 18/17 A2985 RMK A01 T01750167  RH  095%=      5-min Rain = 0
KCL2 241037Z 12008KT 18/17 A2985 RMK A01 T01750167  RH  095%=      5-min Rain = 0
KCL2 241038Z 11006KT 17/17 A2985 RMK A01 T01740166  RH  095%=      5-min Rain = 0
KCL2 241039Z 11007KT 17/17 A2985 RMK A01 T01740166  RH  095%=      5-min Rain = 0
KCL2 241040Z 12007KT 17/17 A2985 RMK A01 T01740166  RH  095%=      5-min Rain = 0
KCL2 241041Z 11007KT 17/17 A2985 RMK A01 T01740166  RH  095%=      5-min Rain = 0
KCL2 241042Z 11008KT 17/17 A2985 RMK A01 T01740166  RH  095%=      5-min Rain = 0
KCL2 241043Z 12007KT 17/17 A2985 RMK A01 T01740166  RH  095%=      5-min Rain = 0
KCL2 241044Z 12007KT 17/17 A2985 RMK A01 T01740166  RH  095%=      5-min Rain = 0
KCL2 241045Z 12006KT 17/17 A2985 RMK A01 T01730166  RH  096%=      5-min Rain = 0
KCL2 241046Z 11007KT 17/17 A2984 RMK A01 T01730166  RH  096%=      5-min Rain = 0
KCL2 241047Z 12008KT 17/17 A2984 RMK A01 T01730166  RH  096%=      5-min Rain = 0
KCL2 241048Z 11007KT 17/17 A2984 RMK A01 T01730166  RH  096%=      5-min Rain = 0
KCL2 241049Z 11007KT 17/17 A2984 RMK A01 T01720166  RH  096%=      5-min Rain = 0
KCL2 241050Z 11007KT 17/17 A2984 RMK A01 T01730166  RH  096%=      5-min Rain = 0
KCL2 241051Z 11008KT 17/17 A2984 RMK A01 T01720166  RH  096%=      5-min Rain = 0
KCL2 241052Z 12008KT 17/17 A2985 RMK A01 T01720166  RH  096%=      5-min Rain = 0
KCL2 241053Z 11008KT 17/17 A2984 RMK A01 T01720166  RH  096%=      5-min Rain = 0
KCL2 241054Z 11008KT 17/17 A2984 RMK A01 T01720166  RH  096%=      5-min Rain = 0
KCL2 241055Z 10007KT 17/17 A2984 RMK A01 T01720166  RH  096%=      5-min Rain = 0
KCL2 241056Z 11007KT 17/17 A2984 RMK A01 T01720166  RH  096%=      5-min Rain = 0
KCL2 241057Z 11008KT 17/17 A2984 RMK A01 T01720166  RH  096%=      5-min Rain = 0
KCL2 241058Z 11008KT 17/17 A2984 RMK A01 T01720166  RH  096%=      5-min Rain = 0
KCL2 241059Z 11007KT 17/17 A2984 RMK A01 T01720166  RH  096%=      5-min Rain = 0
KCL2 241100Z 11007KT 17/17 A2984 RMK A01 T01720167  RH  096%=      5-min Rain = 0
KCL2 241101Z 10007KT 17/17 A2984 RMK A01 T01720167  RH  096%=      5-min Rain = 0
KCL2 241102Z 11006KT 17/17 A2984 RMK A01 T01720167  RH  096%=      5-min Rain = 0
KCL2 241103Z 11007KT 17/17 A2984 RMK A01 T01720167  RH  097%=      5-min Rain = 0
KCL2 241104Z 11007KT 17/17 A2984 RMK A01 T01730167  RH  097%=      5-min Rain = 0
KCL2 241105Z 12008KT 17/17 A2984 RMK A01 T01730167  RH  096%=      5-min Rain = 0
KCL2 241106Z 11007KT 17/17 A2984 RMK A01 T01720167  RH  096%=      5-min Rain = 0
KCL2 241107Z 11007KT 17/17 A2984 RMK A01 T01720167  RH  096%=      5-min Rain = 0
KCL2 241108Z 11005KT 17/17 A2984 RMK A01 T01720166  RH  096%=      5-min Rain = 0
KCL2 241109Z 11006KT 17/17 A2984 RMK A01 T01720167  RH  096%=      5-min Rain = 0
KCL2 241110Z 12006KT 17/17 A2984 RMK A01 T01720167  RH  096%=      5-min Rain = 0
KCL2 241111Z 12007KT 17/17 A2984 RMK A01 T01720167  RH  096%=      5-min Rain = 0
KCL2 241112Z 11007KT 17/17 A2984 RMK A01 T01720167  RH  096%=      5-min Rain = 0
KCL2 241113Z 11007KT 17/17 A2984 RMK A01 T01720166  RH  096%=      5-min Rain = 0
KCL2 241114Z 11007KT 17/17 A2984 RMK A01 T01720167  RH  097%=      5-min Rain = 0
KCL2 241115Z 11007KT 17/17 A2984 RMK A01 T01720167  RH  097%=      5-min Rain = 0
KCL2 241116Z 12008KT 17/17 A2984 RMK A01 T01720167  RH  097%=      5-min Rain = 0
KCL2 241117Z 12008KT 17/17 A2984 RMK A01 T01720167  RH  097%=      5-min Rain = 0
KCL2 241118Z 12008KT 17/17 A2984 RMK A01 T01730167  RH  097%=      5-min Rain = 0
KCL2 241119Z 12008KT 17/17 A2984 RMK A01 T01730167  RH  097%=      5-min Rain = 0
KCL2 241120Z 12007KT 17/17 A2984 RMK A01 T01730167  RH  096%=      5-min Rain = 0
KCL2 241121Z 12006KT 17/17 A2984 RMK A01 T01730167  RH  096%=      5-min Rain = 0
KCL2 241122Z 12007KT 17/17 A2984 RMK A01 T01730167  RH  096%=      5-min Rain = 0
KCL2 241123Z 13008KT 17/17 A2984 RMK A01 T01730167  RH  096%=      5-min Rain = 0
KCL2 241124Z 12008KT 17/17 A2984 RMK A01 T01740168  RH  096%=      5-min Rain = 0
KCL2 241125Z 13008KT 17/17 A2985 RMK A01 T01740168  RH  096%=      5-min Rain = 0
KCL2 241126Z 12008KT 17/17 A2984 RMK A01 T01740167  RH  096%=      5-min Rain = 0
KCL2 241127Z 12008KT 17/17 A2984 RMK A01 T01740167  RH  096%=      5-min Rain = 0
KCL2 241128Z 12008KT 17/17 A2984 RMK A01 T01740167  RH  096%=      5-min Rain = 0
KCL2 241129Z 12008KT 17/17 A2984 RMK A01 T01730167  RH  096%=      5-min Rain = 0
KCL2 241130Z 13008KT 17/17 A2984 RMK A01 T01740167  RH  096%=      5-min Rain = 0
KCL2 241131Z 12008KT 17/17 A2984 RMK A01 T01740167  RH  096%=      5-min Rain = 0
KCL2 241132Z 12009KT 17/17 A2984 RMK A01 T01730167  RH  096%=      5-min Rain = 0
KCL2 241133Z 12008KT 17/17 A2984 RMK A01 T01730167  RH  096%=      5-min Rain = 0
KCL2 241134Z 13007KT 17/17 A2984 RMK A01 T01740167  RH  096%=      5-min Rain = 0
KCL2 241135Z 13007KT 17/17 A2985 RMK A01 T01740167  RH  096%=      5-min Rain = 0
KCL2 241136Z 13007KT 17/17 A2985 RMK A01 T01740167  RH  096%=      5-min Rain = 0
KCL2 241137Z 13007KT 17/17 A2985 RMK A01 T01740167  RH  096%=      5-min Rain = 0
KCL2 241138Z 13008KT 17/17 A2985 RMK A01 T01740167  RH  095%=      5-min Rain = 0
KCL2 241139Z 13008KT 17/17 A2985 RMK A01 T01740167  RH  095%=      5-min Rain = 0
KCL2 241140Z 13008KT 17/17 A2985 RMK A01 T01740166  RH  095%=      5-min Rain = 0
KCL2 241141Z 13008KT 18/17 A2985 RMK A01 T01750166  RH  095%=      5-min Rain = 0
KCL2 241142Z 13008KT 18/17 A2985 RMK A01 T01750166  RH  095%=      5-min Rain = 0
KCL2 241143Z 13007KT 18/17 A2986 RMK A01 T01750166  RH  094%=      5-min Rain = 0
KCL2 241144Z 13008KT 18/17 A2985 RMK A01 T01750166  RH  094%=      5-min Rain = 0
KCL2 241145Z 13007KT 18/17 A2985 RMK A01 T01750166  RH  094%=      5-min Rain = 0
KCL2 241146Z 14007KT 18/17 A2985 RMK A01 T01750166  RH  094%=      5-min Rain = 0
KCL2 241147Z 13008KT 18/17 A2985 RMK A01 T01750165  RH  094%=      5-min Rain = 0
KCL2 241148Z 13008KT 18/17 A2986 RMK A01 T01750165  RH  094%=      5-min Rain = 0
KCL2 241149Z 13008KT 18/17 A2986 RMK A01 T01750165  RH  094%=      5-min Rain = 0
KCL2 241150Z 13008KT 18/17 A2986 RMK A01 T01750165  RH  094%=      5-min Rain = 0
KCL2 241151Z 13007KT 18/17 A2986 RMK A01 T01750165  RH  094%=      5-min Rain = 0
KCL2 241152Z 13007KT 18/17 A2986 RMK A01 T01750165  RH  094%=      5-min Rain = 0
KCL2 241153Z 13007KT 18/17 A2986 RMK A01 T01750165  RH  094%=      5-min Rain = 0
KCL2 241154Z 13007KT 18/16 A2986 RMK A01 T01750164  RH  094%=      5-min Rain = 0
KCL2 241155Z 13006KT 18/16 A2986 RMK A01 T01750164  RH  093%=      5-min Rain = 0
KCL2 241156Z 13006KT 18/16 A2986 RMK A01 T01750164  RH  093%=      5-min Rain = 0
KCL2 241157Z 13007KT 18/16 A2986 RMK A01 T01750164  RH  093%=      5-min Rain = 0
KCL2 241158Z 13007KT 18/16 A2986 RMK A01 T01750164  RH  093%=      5-min Rain = 0
KCL2 241159Z 13007KT 18/16 A2986 RMK A01 T01750164  RH  093%=      5-min Rain = 0
KCL2 241200Z 13007KT 17/16 A2986 RMK A01 T01740164  RH  093%=      5-min Rain = 0
KCL2 241201Z 13007KT 18/16 A2986 RMK A01 T01750164  RH  093%=      5-min Rain = 0
KCL2 241202Z 13007KT 17/16 A2986 RMK A01 T01740163  RH  093%=      5-min Rain = 0
KCL2 241203Z 13007KT 18/16 A2986 RMK A01 T01750163  RH  093%=      5-min Rain = 0
KCL2 241204Z 13006KT 18/16 A2986 RMK A01 T01750163  RH  093%=      5-min Rain = 0
KCL2 241205Z 13007KT 17/16 A2986 RMK A01 T01740163  RH  093%=      5-min Rain = 0
KCL2 241206Z 13007KT 17/16 A2986 RMK A01 T01740163  RH  093%=      5-min Rain = 0
KCL2 241207Z 13008KT 17/16 A2986 RMK A01 T01740163  RH  093%=      5-min Rain = 0
KCL2 241208Z 13008KT 17/16 A2986 RMK A01 T01740163  RH  093%=      5-min Rain = 0
KCL2 241209Z 13009KT 17/16 A2986 RMK A01 T01740163  RH  093%=      5-min Rain = 0
KCL2 241210Z 13009KT 17/16 A2986 RMK A01 T01730163  RH  093%=      5-min Rain = 0
KCL2 241211Z 13008KT 17/16 A2986 RMK A01 T01730163  RH  093%=      5-min Rain = 0
KCL2 241212Z 13008KT 17/16 A2986 RMK A01 T01740163  RH  093%=      5-min Rain = 0
KCL2 241213Z 13007KT 18/16 A2986 RMK A01 T01750163  RH  093%=      5-min Rain = 0
KCL2 241214Z 13007KT 17/16 A2986 RMK A01 T01740162  RH  093%=      5-min Rain = 0
KCL2 241215Z 13007KT 17/16 A2986 RMK A01 T01740162  RH  092%=      5-min Rain = 0
KCL2 241216Z 13008KT 17/16 A2986 RMK A01 T01740162  RH  092%=      5-min Rain = 0
KCL2 241217Z 13007KT 17/16 A2987 RMK A01 T01740162  RH  092%=      5-min Rain = 0
KCL2 241218Z 13008KT 18/16 A2987 RMK A01 T01750162  RH  092%=      5-min Rain = 0
KCL2 241219Z 13008KT 17/16 A2987 RMK A01 T01740162  RH  092%=      5-min Rain = 0
KCL2 241220Z 13007KT 18/16 A2987 RMK A01 T01750162  RH  092%=      5-min Rain = 0
KCL2 241221Z 13008KT 18/16 A2987 RMK A01 T01750162  RH  092%=      5-min Rain = 0
KCL2 241222Z 14008KT 18/16 A2987 RMK A01 T01750162  RH  092%=      5-min Rain = 0
KCL2 241223Z 14008KT 18/16 A2987 RMK A01 T01750162  RH  092%=      5-min Rain = 0
KCL2 241224Z 14008KT 18/16 A2988 RMK A01 T01750162  RH  092%=      5-min Rain = 0
KCL2 241225Z 14008KT 18/16 A2988 RMK A01 T01750162  RH  092%=      5-min Rain = 0
KCL2 241226Z 14008KT 18/16 A2987 RMK A01 T01760162  RH  092%=      5-min Rain = 0
KCL2 241227Z 14008KT 18/16 A2987 RMK A01 T01760162  RH  091%=      5-min Rain = 0
KCL2 241228Z 14008KT 18/16 A2987 RMK A01 T01770162  RH  091%=      5-min Rain = 0
KCL2 241229Z 14008KT 18/16 A2988 RMK A01 T01770162  RH  091%=      5-min Rain = 0
KCL2 241230Z 14008KT 18/16 A2988 RMK A01 T01770162  RH  091%=      5-min Rain = 0
KCL2 241231Z 14008KT 18/16 A2988 RMK A01 T01770162  RH  091%=      5-min Rain = 0
KCL2 241232Z 13009KT 18/16 A2988 RMK A01 T01780162  RH  091%=      5-min Rain = 0
KCL2 241233Z 14008KT 18/16 A2988 RMK A01 T01780162  RH  091%=      5-min Rain = 0
KCL2 241234Z 14008KT 18/16 A2988 RMK A01 T01780162  RH  090%=      5-min Rain = 0
KCL2 241235Z 15007KT 18/16 A2988 RMK A01 T01790162  RH  090%=      5-min Rain = 0
KCL2 241236Z 14008KT 18/16 A2988 RMK A01 T01790162  RH  090%=      5-min Rain = 0
KCL2 241237Z 15009KT 18/16 A2989 RMK A01 T01800162  RH  089%=      5-min Rain = 0
KCL2 241238Z 15008KT 18/16 A2989 RMK A01 T01800162  RH  089%=      5-min Rain = 0
KCL2 241239Z 15008KT 18/16 A2989 RMK A01 T01810162  RH  089%=      5-min Rain = 0
KCL2 241240Z 15008KT 18/16 A2989 RMK A01 T01810162  RH  088%=      5-min Rain = 0
KCL2 241241Z 15008KT 18/16 A2989 RMK A01 T01820162  RH  088%=      5-min Rain = 0
KCL2 241242Z 15008KT 18/16 A2989 RMK A01 T01820162  RH  088%=      5-min Rain = 0
KCL2 241243Z 15008KT 18/16 A2989 RMK A01 T01830163  RH  088%=      5-min Rain = 0
KCL2 241244Z 15008KT 18/16 A2989 RMK A01 T01830163  RH  088%=      5-min Rain = 0
KCL2 241245Z 14007KT 18/16 A2989 RMK A01 T01840163  RH  087%=      5-min Rain = 0
KCL2 241246Z 15008KT 19/16 A2989 RMK A01 T01850163  RH  087%=      5-min Rain = 0
KCL2 241247Z 15007KT 19/16 A2989 RMK A01 T01850163  RH  087%=      5-min Rain = 0
KCL2 241248Z 15007KT 19/16 A2989 RMK A01 T01860163  RH  086%=      5-min Rain = 0
KCL2 241249Z 15007KT 19/16 A2989 RMK A01 T01860162  RH  086%=      5-min Rain = 0
KCL2 241250Z 16010KT 19/16 A2989 RMK A01 T01860162  RH  086%=      5-min Rain = 0
KCL2 241251Z 16007KT 19/16 A2989 RMK A01 T01870162  RH  086%=      5-min Rain = 0
KCL2 241252Z 15008KT 19/16 A299 RMK A01 T01870163  RH  086%=      5-min Rain = 0
KCL2 241253Z 15008KT 19/16 A299 RMK A01 T01880162  RH  085%=      5-min Rain = 0
KCL2 241254Z 15009KT 19/16 A299 RMK A01 T01880163  RH  085%=      5-min Rain = 0
KCL2 241255Z 15008KT 19/16 A299 RMK A01 T01890163  RH  084%=      5-min Rain = 0
KCL2 241256Z 16006KT 19/16 A299 RMK A01 T01900162  RH  084%=      5-min Rain = 0
KCL2 241257Z 15007KT 19/16 A299 RMK A01 T01910163  RH  084%=      5-min Rain = 0
KCL2 241258Z 15006G12KT 19/16 A299 RMK A01 T01910164  RH  084%=      5-min Rain = 0
KCL2 241259Z 16010KT 19/16 A299 RMK A01 T01920163  RH  083%=      5-min Rain = 0
KCL2 241300Z 16007KT 19/16 A299 RMK A01 T01930163  RH  083%=      5-min Rain = 0
KCL2 241301Z 16007KT 19/17 A299 RMK A01 T01940165  RH  083%=      5-min Rain = 0
KCL2 241302Z 16010KT 20/16 A299 RMK A01 T01950163  RH  082%=      5-min Rain = 0
KCL2 241303Z 16008KT 20/16 A299 RMK A01 T01950162  RH  081%=      5-min Rain = 0
KCL2 241304Z 17009KT 20/16 A299 RMK A01 T01950163  RH  082%=      5-min Rain = 0
KCL2 241305Z 17008KT 20/16 A299 RMK A01 T01950163  RH  082%=      5-min Rain = 0
KCL2 241306Z 16010KT 20/16 A299 RMK A01 T01950162  RH  081%=      5-min Rain = 0
KCL2 241307Z 16011KT 20/16 A299 RMK A01 T01960161  RH  080%=      5-min Rain = 0
KCL2 241308Z 16010KT 20/16 A299 RMK A01 T01960160  RH  080%=      5-min Rain = 0
KCL2 241309Z 16007KT 20/16 A299 RMK A01 T01970162  RH  080%=      5-min Rain = 0
KCL2 241310Z 16008KT 20/16 A299 RMK A01 T01980163  RH  080%=      5-min Rain = 0
KCL2 241311Z 16010KT 20/16 A299 RMK A01 T01980161  RH  079%=      5-min Rain = 0
KCL2 241312Z 17009KT 20/16 A299 RMK A01 T01990162  RH  079%=      5-min Rain = 0
KCL2 241313Z 17009KT 20/16 A299 RMK A01 T02000161  RH  079%=      5-min Rain = 0
KCL2 241314Z 16008KT 20/16 A299 RMK A01 T02010162  RH  079%=      5-min Rain = 0
KCL2 241315Z 16009KT 20/16 A299 RMK A01 T02020162  RH  078%=      5-min Rain = 0
KCL2 241316Z 16012KT 20/16 A299 RMK A01 T02020161  RH  077%=      5-min Rain = 0
KCL2 241317Z 16011KT 20/16 A299 RMK A01 T02020160  RH  077%=      5-min Rain = 0
KCL2 241318Z 17011KT 20/16 A299 RMK A01 T02010160  RH  077%=      5-min Rain = 0
KCL2 241319Z 16010KT 20/16 A299 RMK A01 T02020160  RH  077%=      5-min Rain = 0
KCL2 241320Z 17010KT 20/16 A299 RMK A01 T02010160  RH  077%=      5-min Rain = 0
KCL2 241321Z 16013KT 20/16 A299 RMK A01 T02020159  RH  077%=      5-min Rain = 0
KCL2 241322Z 16011KT 20/16 A299 RMK A01 T02020158  RH  076%=      5-min Rain = 0
KCL2 241323Z 16011KT 20/16 A299 RMK A01 T02020159  RH  076%=      5-min Rain = 0
KCL2 241324Z 16010KT 20/16 A299 RMK A01 T02030159  RH  076%=      5-min Rain = 0
KCL2 241325Z 16010KT 20/16 A299 RMK A01 T02030159  RH  076%=      5-min Rain = 0
KCL2 241326Z 16011KT 20/16 A299 RMK A01 T02040159  RH  075%=      5-min Rain = 0
KCL2 241327Z 16012KT 20/16 A299 RMK A01 T02040158  RH  075%=      5-min Rain = 0
KCL2 241328Z 16011KT 20/16 A299 RMK A01 T02040158  RH  075%=      5-min Rain = 0
KCL2 241329Z 16010KT 21/16 A299 RMK A01 T02050159  RH  075%=      5-min Rain = 0
KCL2 241330Z 16010KT 21/16 A299 RMK A01 T02060160  RH  075%=      5-min Rain = 0
KCL2 241331Z 16009KT 21/16 A299 RMK A01 T02060159  RH  075%=      5-min Rain = 0
KCL2 241332Z 16011KT 21/16 A299 RMK A01 T02070158  RH  074%=      5-min Rain = 0
KCL2 241333Z 16011KT 21/16 A299 RMK A01 T02070158  RH  073%=      5-min Rain = 0
KCL2 241334Z 16011KT 21/16 A299 RMK A01 T02080157  RH  073%=      5-min Rain = 0
KCL2 241335Z 16011KT 21/16 A299 RMK A01 T02090158  RH  073%=      5-min Rain = 0
KCL2 241336Z 16011KT 21/16 A299 RMK A01 T02090156  RH  072%=      5-min Rain = 0
KCL2 241337Z 16009KT 21/16 A299 RMK A01 T02100157  RH  072%=      5-min Rain = 0
KCL2 241338Z 16010KT 21/16 A299 RMK A01 T02110158  RH  072%=      5-min Rain = 0
KCL2 241339Z 16011KT 21/16 A299 RMK A01 T02120159  RH  072%=      5-min Rain = 0
KCL2 241340Z 16010KT 21/16 A299 RMK A01 T02120158  RH  071%=      5-min Rain = 0
KCL2 241341Z 16009KT 21/16 A299 RMK A01 T02130159  RH  071%=      5-min Rain = 0
KCL2 241342Z 17010KT 21/16 A299 RMK A01 T02130159  RH  071%=      5-min Rain = 0
KCL2 241343Z 16011KT 21/16 A299 RMK A01 T02140157  RH  070%=      5-min Rain = 0
KCL2 241344Z 17011KT 21/16 A299 RMK A01 T02140157  RH  070%=      5-min Rain = 0
KCL2 241345Z 17009KT 21/16 A299 RMK A01 T02140157  RH  070%=      5-min Rain = 0
KCL2 241346Z 17009KT 22/16 A299 RMK A01 T02150157  RH  069%=      5-min Rain = 0
KCL2 241347Z 18009KT 22/16 A299 RMK A01 T02160157  RH  069%=      5-min Rain = 0
KCL2 241348Z 17011KT 22/16 A299 RMK A01 T02170157  RH  069%=      5-min Rain = 0
KCL2 241349Z 17008KT 22/16 A299 RMK A01 T02180157  RH  068%=      5-min Rain = 0
KCL2 241350Z 17009KT 22/16 A299 RMK A01 T02190158  RH  068%=      5-min Rain = 0
KCL2 241351Z 17008KT 22/16 A299 RMK A01 T02210158  RH  067%=      5-min Rain = 0
KCL2 241352Z 16011KT 22/16 A299 RMK A01 T02220158  RH  067%=      5-min Rain = 0
KCL2 241353Z 16011KT 22/16 A299 RMK A01 T02230157  RH  066%=      5-min Rain = 0
KCL2 241354Z 16011KT 22/16 A299 RMK A01 T02230155  RH  065%=      5-min Rain = 0
KCL2 241355Z 16010KT 22/16 A299 RMK A01 T02230156  RH  066%=      5-min Rain = 0
KCL2 241356Z 17011KT 22/16 A299 RMK A01 T02230155  RH  065%=      5-min Rain = 0
KCL2 241357Z 16011KT 22/16 A299 RMK A01 T02240155  RH  065%=      5-min Rain = 0
KCL2 241358Z 16012KT 22/15 A299 RMK A01 T02240154  RH  065%=      5-min Rain = 0
KCL2 241359Z 17010KT 22/16 A299 RMK A01 T02240155  RH  065%=      5-min Rain = 0
KCL2 241400Z 17009KT 23/16 A299 RMK A01 T02250157  RH  065%=      5-min Rain = 0
KCL2 241401Z 17012KT 23/16 A299 RMK A01 T02270155  RH  064%=      5-min Rain = 0
KCL2 241402Z 17010KT 23/16 A299 RMK A01 T02280156  RH  064%=      5-min Rain = 0
KCL2 241403Z 18010KT 23/16 A299 RMK A01 T02280155  RH  063%=      5-min Rain = 0
KCL2 241404Z 18012KT 23/16 A299 RMK A01 T02300155  RH  063%=      5-min Rain = 0
KCL2 241405Z 18011KT 23/15 A299 RMK A01 T02300154  RH  062%=      5-min Rain = 0
KCL2 241406Z 17008KT 23/16 A299 RMK A01 T02310155  RH  062%=      5-min Rain = 0
KCL2 241407Z 17010KT 23/16 A299 RMK A01 T02320155  RH  062%=      5-min Rain = 0
KCL2 241408Z 17014KT 23/15 A299 RMK A01 T02340152  RH  060%=      5-min Rain = 0
KCL2 241409Z 18011KT 23/15 A299 RMK A01 T02340152  RH  060%=      5-min Rain = 0
KCL2 241410Z 18011KT 23/15 A299 RMK A01 T02340153  RH  060%=      5-min Rain = 0
KCL2 241411Z 17012KT 24/15 A299 RMK A01 T02350153  RH  060%=      5-min Rain = 0
KCL2 241412Z 18013KT 24/15 A299 RMK A01 T02350152  RH  060%=      5-min Rain = 0
KCL2 241413Z 17011KT 23/15 A299 RMK A01 T02340153  RH  060%=      5-min Rain = 0
KCL2 241414Z 16008KT 24/16 A299 RMK A01 T02350156  RH  061%=      5-min Rain = 0
KCL2 241415Z 16011KT 24/16 A299 RMK A01 T02380155  RH  060%=      5-min Rain = 0
KCL2 241416Z 17011G16KT 24/16 A299 RMK A01 T02390155  RH  059%=      5-min Rain = 0
KCL2 241417Z 18015KT 24/15 A299 RMK A01 T02390153  RH  059%=      5-min Rain = 0
KCL2 241418Z 17016KT 24/15 A2989 RMK A01 T02370152  RH  059%=      5-min Rain = 0
KCL2 241419Z 16014KT 24/15 A299 RMK A01 T02370152  RH  059%=      5-min Rain = 0
KCL2 241420Z 17019KT 24/15 A299 RMK A01 T02360153  RH  059%=      5-min Rain = 0
KCL2 241421Z 17016KT 24/15 A299 RMK A01 T02360152  RH  059%=      5-min Rain = 0
KCL2 241422Z 17014KT 24/15 A299 RMK A01 T02360153  RH  060%=      5-min Rain = 0
KCL2 241423Z 16011KT 24/16 A299 RMK A01 T02360155  RH  060%=      5-min Rain = 0
KCL2 241424Z 16009KT 24/16 A299 RMK A01 T02380157  RH  061%=      5-min Rain = 0
KCL2 241425Z 17014G20KT 24/16 A299 RMK A01 T02410159  RH  060%=      5-min Rain = 0
KCL2 241426Z 16015G22KT 24/16 A299 RMK A01 T02420160  RH  060%=      5-min Rain = 0
KCL2 241427Z 17013G20KT 24/16 A299 RMK A01 T02420161  RH  061%=      5-min Rain = 0
KCL2 241428Z 18014G20KT 24/16 A299 RMK A01 T02420162  RH  061%=      5-min Rain = 0
KCL2 241429Z 17013G19KT 24/16 A299 RMK A01 T02420162  RH  061%=      5-min Rain = 0
KCL2 241430Z 17016G24KT 24/16 A299 RMK A01 T02420163  RH  061%=      5-min Rain = 0
KCL2 241431Z 18019G24KT 24/16 A299 RMK A01 T02420161  RH  061%=      5-min Rain = 0
KCL2 241432Z 17014KT 24/16 A299 RMK A01 T02400162  RH  062%=      5-min Rain = 0
KCL2 241433Z 18015KT 24/16 A299 RMK A01 T02390164  RH  063%=      5-min Rain = 0
KCL2 241434Z 18015KT 24/16 A299 RMK A01 T02400164  RH  062%=      5-min Rain = 0
KCL2 241435Z 17014KT 24/17 A299 RMK A01 T02400165  RH  063%=      5-min Rain = 0
KCL2 241436Z 18016G21KT 24/17 A299 RMK A01 T02420165  RH  062%=      5-min Rain = 0
KCL2 241437Z 19020G26KT 24/17 A2989 RMK A01 T02410166  RH  063%=      5-min Rain = 0
KCL2 241438Z 18019KT 24/17 A299 RMK A01 T02400167  RH  064%=      5-min Rain = 0
KCL2 241439Z 17018G24KT 24/17 A299 RMK A01 T02380167  RH  064%=      5-min Rain = 0
KCL2 241440Z 18017KT 24/17 A299 RMK A01 T02380167  RH  064%=      5-min Rain = 0
KCL2 241441Z 18015KT 24/17 A299 RMK A01 T02380167  RH  064%=      5-min Rain = 0
KCL2 241442Z 17014G20KT 24/17 A299 RMK A01 T02390167  RH  064%=      5-min Rain = 0
KCL2 241443Z 18013KT 24/17 A299 RMK A01 T02400168  RH  064%=      5-min Rain = 0
KCL2 241444Z 17012KT 24/17 A299 RMK A01 T02410169  RH  064%=      5-min Rain = 0
KCL2 241445Z 18018KT 24/17 A299 RMK A01 T02430170  RH  064%=      5-min Rain = 0
KCL2 241446Z 18017G23KT 24/17 A299 RMK A01 T02430170  RH  063%=      5-min Rain = 0
KCL2 241447Z 18019KT 24/17 A2989 RMK A01 T02430171  RH  064%=      5-min Rain = 0
KCL2 241448Z 18015G23KT 24/17 A299 RMK A01 T02410170  RH  065%=      5-min Rain = 0
KCL2 241449Z 18018KT 24/17 A299 RMK A01 T02410171  RH  065%=      5-min Rain = 0
KCL2 241450Z 18019G24KT 24/17 A299 RMK A01 T02400171  RH  065%=      5-min Rain = 0
KCL2 241451Z 18019G24KT 24/17 A299 RMK A01 T02400171  RH  065%=      5-min Rain = 0
KCL2 241452Z 18019KT 24/17 A299 RMK A01 T02390171  RH  066%=      5-min Rain = 0
KCL2 241453Z 18020G25KT 24/17 A299 RMK A01 T02390171  RH  066%=      5-min Rain = 0
KCL2 241454Z 18016G22KT 24/17 A299 RMK A01 T02390173  RH  066%=      5-min Rain = 0
KCL2 241455Z 18019G24KT 24/17 A299 RMK A01 T02410171  RH  065%=      5-min Rain = 0
KCL2 241456Z 18017KT 24/17 A299 RMK A01 T02410172  RH  065%=      5-min Rain = 0
KCL2 241457Z 18019KT 24/17 A299 RMK A01 T02420172  RH  065%=      5-min Rain = 0
KCL2 241458Z 18019KT 24/17 A299 RMK A01 T02410171  RH  065%=      5-min Rain = 0
KCL2 241459Z 18019KT 24/17 A299 RMK A01 T02410172  RH  065%=      5-min Rain = 0
KCL2 241500Z 18018KT 24/17 A299 RMK A01 T02410171  RH  065%=      5-min Rain = 0
KCL2 241501Z 18018KT 24/17 A2989 RMK A01 T02410171  RH  065%=      5-min Rain = 0
KCL2 241502Z 17017KT 24/17 A2989 RMK A01 T02400171  RH  065%=      5-min Rain = 0
KCL2 241503Z 18013KT 24/17 A299 RMK A01 T02430173  RH  065%=      5-min Rain = 0
KCL2 241504Z 18012KT 25/17 A299 RMK A01 T02470174  RH  064%=      5-min Rain = 0
KCL2 241505Z 18017KT 25/17 A299 RMK A01 T02490173  RH  063%=      5-min Rain = 0
KCL2 241506Z 18016KT 25/17 A2989 RMK A01 T02480172  RH  063%=      5-min Rain = 0
KCL2 241507Z 18013G19KT 25/17 A299 RMK A01 T02460173  RH  063%=      5-min Rain = 0
KCL2 241508Z 19014G20KT 25/17 A299 RMK A01 T02470173  RH  064%=      5-min Rain = 0
KCL2 241509Z 19011KT 25/17 A299 RMK A01 T02470173  RH  063%=      5-min Rain = 0
KCL2 241510Z 19013G18KT 25/18 A299 RMK A01 T02500176  RH  063%=      5-min Rain = 0
KCL2 241511Z 20011KT 25/18 A299 RMK A01 T02530175  RH  062%=      5-min Rain = 0
KCL2 241512Z 19015KT 26/18 A299 RMK A01 T02550175  RH  061%=      5-min Rain = 0
KCL2 241513Z 20016KT 25/17 A2989 RMK A01 T02540173  RH  061%=      5-min Rain = 0
KCL2 241514Z 18014KT 25/17 A2989 RMK A01 T02530174  RH  062%=      5-min Rain = 0
KCL2 241515Z 18013KT 25/17 A2989 RMK A01 T02530173  RH  061%=      5-min Rain = 0
KCL2 241516Z 20017KT 25/17 A2989 RMK A01 T02530174  RH  061%=      5-min Rain = 0
KCL2 241517Z 19016G21KT 25/17 A2989 RMK A01 T02530173  RH  061%=      5-min Rain = 0
KCL2 241518Z 18015KT 25/17 A2989 RMK A01 T02520174  RH  062%=      5-min Rain = 0
KCL2 241519Z 18018G24KT 25/17 A2989 RMK A01 T02510172  RH  061%=      5-min Rain = 0
KCL2 241520Z 18014G19KT 25/17 A2989 RMK A01 T02520174  RH  062%=      5-min Rain = 0
KCL2 241521Z 18017KT 25/17 A2989 RMK A01 T02540173  RH  061%=      5-min Rain = 0
KCL2 241522Z 19017KT 25/17 A2989 RMK A01 T02540172  RH  060%=      5-min Rain = 0
KCL2 241523Z 18018KT 25/17 A2989 RMK A01 T02530173  RH  061%=      5-min Rain = 0
KCL2 241524Z 18015KT 25/17 A2989 RMK A01 T02510172  RH  062%=      5-min Rain = 0
KCL2 241525Z 18014KT 25/17 A2989 RMK A01 T02520173  RH  062%=      5-min Rain = 0
KCL2 241526Z 17017G22KT 25/17 A2989 RMK A01 T02530174  RH  061%=      5-min Rain = 0
KCL2 241527Z 20016G22KT 26/17 A2989 RMK A01 T02550174  RH  061%=      5-min Rain = 0
KCL2 241528Z 20016KT 26/17 A2989 RMK A01 T02580172  RH  059%=      5-min Rain = 0
KCL2 241529Z 20018KT 26/17 A2989 RMK A01 T02580173  RH  059%=      5-min Rain = 0
KCL2 241530Z 20021G27KT 26/17 A2989 RMK A01 T02580170  RH  058%=      5-min Rain = 0
KCL2 241531Z 19019KT 26/17 A2989 RMK A01 T02560168  RH  058%=      5-min Rain = 0
KCL2 241532Z 19017KT 26/17 A2989 RMK A01 T02560168  RH  058%=      5-min Rain = 0
KCL2 241533Z 20019KT 26/17 A2989 RMK A01 T02560168  RH  058%=      5-min Rain = 0
KCL2 241534Z 19016KT 26/17 A2989 RMK A01 T02560166  RH  058%=      5-min Rain = 0
KCL2 241535Z 17012KT 26/17 A2989 RMK A01 T02570167  RH  057%=      5-min Rain = 0
KCL2 241536Z 17017G22KT 26/17 A2989 RMK A01 T02580165  RH  056%=      5-min Rain = 0
KCL2 241537Z 18016KT 26/17 A2989 RMK A01 T02580165  RH  057%=      5-min Rain = 0
KCL2 241538Z 19013G18KT 26/17 A2989 RMK A01 T02590166  RH  057%=      5-min Rain = 0
KCL2 241539Z 19016KT 26/17 A2989 RMK A01 T02600166  RH  056%=      5-min Rain = 0
KCL2 241540Z 20014KT 26/17 A2989 RMK A01 T02590167  RH  057%=      5-min Rain = 0
KCL2 241541Z 19013KT 26/17 A2989 RMK A01 T02600167  RH  057%=      5-min Rain = 0
KCL2 241542Z 18015G23KT 26/17 A2989 RMK A01 T02610170  RH  057%=      5-min Rain = 0
KCL2 241543Z 18018KT 26/17 A2989 RMK A01 T02620169  RH  057%=      5-min Rain = 0
KCL2 241544Z 19018KT 26/17 A2989 RMK A01 T02610169  RH  057%=      5-min Rain = 0
KCL2 241545Z 19019KT 26/17 A2989 RMK A01 T02600168  RH  057%=      5-min Rain = 0
KCL2 241546Z 20018G24KT 26/17 A2989 RMK A01 T02570168  RH  058%=      5-min Rain = 0
KCL2 241547Z 20022G28KT 26/17 A2989 RMK A01 T02560169  RH  058%=      5-min Rain = 0
KCL2 241548Z 19020G26KT 26/17 A2989 RMK A01 T02580169  RH  058%=      5-min Rain = 0
KCL2 241549Z 19022G27KT 26/17 A2988 RMK A01 T02580168  RH  058%=      5-min Rain = 0
KCL2 241550Z 19016G21KT 25/17 A2989 RMK A01 T02530167  RH  059%=      5-min Rain = 0
KCL2 241551Z 19018KT 25/17 A2988 RMK A01 T02520168  RH  060%=      5-min Rain = 0
KCL2 241552Z 19017G23KT 25/17 A2988 RMK A01 T02540169  RH  059%=      5-min Rain = 0
KCL2 241553Z 18022G27KT 26/17 A2988 RMK A01 T02580171  RH  059%=      5-min Rain = 0
KCL2 241554Z 18020KT 26/17 A2988 RMK A01 T02590169  RH  058%=      5-min Rain = 0
KCL2 241555Z 18022KT 26/17 A2988 RMK A01 T02580169  RH  058%=      5-min Rain = 0
KCL2 241556Z 18018KT 26/17 A2988 RMK A01 T02580169  RH  058%=      5-min Rain = 0
KCL2 241557Z 18019G24KT 26/17 A2988 RMK A01 T02580169  RH  058%=      5-min Rain = 0
KCL2 241558Z 20019G24KT 26/17 A2988 RMK A01 T02580169  RH  058%=      5-min Rain = 0
KCL2 241559Z 19018KT 26/17 A2988 RMK A01 T02590170  RH  058%=      5-min Rain = 0
KCL2 241600Z 18016KT 26/17 A2988 RMK A01 T02610171  RH  058%=      5-min Rain = 0
KCL2 241601Z 18017G22KT 26/17 A2988 RMK A01 T02630171  RH  057%=      5-min Rain = 0
KCL2 241602Z 17019G26KT 26/17 A2988 RMK A01 T02630170  RH  057%=      5-min Rain = 0
KCL2 241603Z 17020KT 26/17 A2988 RMK A01 T02620170  RH  057%=      5-min Rain = 0
KCL2 241604Z 17018G24KT 26/17 A2988 RMK A01 T02620170  RH  057%=      5-min Rain = 0
KCL2 241605Z 18018G23KT 26/17 A2988 RMK A01 T02620171  RH  057%=      5-min Rain = 0
KCL2 241606Z 17017G23KT 26/17 A2987 RMK A01 T02630170  RH  057%=      5-min Rain = 0
KCL2 241607Z 16019KT 26/17 A2987 RMK A01 T02630171  RH  057%=      5-min Rain = 0
KCL2 241608Z 16018G23KT 26/17 A2987 RMK A01 T02620170  RH  057%=      5-min Rain = 0
KCL2 241609Z 17013KT 26/17 A2987 RMK A01 T02620173  RH  058%=      5-min Rain = 0
KCL2 241610Z 17023KT 27/17 A2987 RMK A01 T02660171  RH  056%=      5-min Rain = 0
KCL2 241611Z 17016G23KT 26/17 A2987 RMK A01 T02640171  RH  056%=      5-min Rain = 0
KCL2 241612Z 17022G27KT 26/17 A2987 RMK A01 T02640170  RH  056%=      5-min Rain = 0
KCL2 241613Z 17018G24KT 27/17 A2987 RMK A01 T02650169  RH  056%=      5-min Rain = 0
KCL2 241614Z 17018G24KT 27/17 A2987 RMK A01 T02650168  RH  055%=      5-min Rain = 0
KCL2 241615Z 17020G25KT 27/17 A2987 RMK A01 T02650167  RH  055%=      5-min Rain = 0
KCL2 241616Z 17017G24KT 27/17 A2987 RMK A01 T02660168  RH  055%=      5-min Rain = 0
KCL2 241617Z 17020G28KT 27/17 A2987 RMK A01 T02670166  RH  054%=      5-min Rain = 0
KCL2 241618Z 17019G27KT 27/17 A2987 RMK A01 T02660167  RH  054%=      5-min Rain = 0
KCL2 241619Z 17019G24KT 27/17 A2987 RMK A01 T02660167  RH  055%=      5-min Rain = 0
KCL2 241620Z 18021KT 27/17 A2987 RMK A01 T02660167  RH  054%=      5-min Rain = 0
KCL2 241621Z 18022G28KT 27/17 A2987 RMK A01 T02660165  RH  054%=      5-min Rain = 0
KCL2 241622Z 17019G25KT 27/17 A2987 RMK A01 T02660165  RH  054%=      5-min Rain = 0
KCL2 241623Z 17018KT 27/17 A2987 RMK A01 T02680166  RH  054%=      5-min Rain = 0
KCL2 241624Z 19018G27KT 27/17 A2987 RMK A01 T02690165  RH  053%=      5-min Rain = 0
KCL2 241625Z 18020KT 27/17 A2987 RMK A01 T02710166  RH  053%=      5-min Rain = 0
KCL2 241626Z 17015KT 27/17 A2987 RMK A01 T02710166  RH  053%=      5-min Rain = 0
KCL2 241627Z 17017G23KT 27/17 A2987 RMK A01 T02720165  RH  052%=      5-min Rain = 0
KCL2 241628Z 19014G19KT 27/17 A2987 RMK A01 T02720166  RH  052%=      5-min Rain = 0
KCL2 241629Z 18020G25KT 27/17 A2987 RMK A01 T02730167  RH  052%=      5-min Rain = 0
KCL2 241630Z 19020KT 27/17 A2987 RMK A01 T02730166  RH  052%=      5-min Rain = 0
KCL2 241631Z 19016KT 27/17 A2987 RMK A01 T02720166  RH  052%=      5-min Rain = 0
KCL2 241632Z 19020KT 27/17 A2987 RMK A01 T02720165  RH  052%=      5-min Rain = 0
KCL2 241633Z 19019G25KT 27/17 A2987 RMK A01 T02730165  RH  052%=      5-min Rain = 0
KCL2 241634Z 19019KT 27/16 A2987 RMK A01 T02740164  RH  051%=      5-min Rain = 0
KCL2 241635Z 18019KT 27/17 A2987 RMK A01 T02730165  RH  052%=      5-min Rain = 0
KCL2 241636Z 19016G23KT 27/17 A2987 RMK A01 T02730166  RH  052%=      5-min Rain = 0
KCL2 241637Z 19018G25KT 28/17 A2987 RMK A01 T02750166  RH  051%=      5-min Rain = 0
KCL2 241638Z 18017G24KT 28/17 A2987 RMK A01 T02760167  RH  051%=      5-min Rain = 0
KCL2 241639Z 18017G24KT 28/17 A2987 RMK A01 T02790169  RH  051%=      5-min Rain = 0
KCL2 241640Z 18017KT 28/17 A2987 RMK A01 T02800167  RH  050%=      5-min Rain = 0
KCL2 241641Z 18018G24KT 28/17 A2987 RMK A01 T02780166  RH  050%=      5-min Rain = 0
KCL2 241642Z 17018G24KT 28/17 A2987 RMK A01 T02770166  RH  051%=      5-min Rain = 0
KCL2 241643Z 16020KT 28/17 A2987 RMK A01 T02760165  RH  051%=      5-min Rain = 0
KCL2 241644Z 17018KT 28/17 A2987 RMK A01 T02750166  RH  051%=      5-min Rain = 0
KCL2 241645Z 18013G19KT 28/17 A2987 RMK A01 T02770168  RH  051%=      5-min Rain = 0
KCL2 241646Z 16016KT 28/17 A2987 RMK A01 T02800169  RH  051%=      5-min Rain = 0
KCL2 241647Z 17014KT 28/17 A2987 RMK A01 T02800168  RH  050%=      5-min Rain = 0
KCL2 241648Z 17013KT 28/17 A2987 RMK A01 T02800169  RH  051%=      5-min Rain = 0
KCL2 241649Z 19016G24KT 28/17 A2987 RMK A01 T02830171  RH  051%=      5-min Rain = 0
KCL2 241650Z 19015KT 29/17 A2987 RMK A01 T02860171  RH  050%=      5-min Rain = 0
KCL2 241651Z 19021G26KT 29/17 A2987 RMK A01 T02860168  RH  049%=      5-min Rain = 0
KCL2 241652Z 19019G27KT 28/17 A2987 RMK A01 T02840167  RH  049%=      5-min Rain = 0
KCL2 241653Z 18018G27KT 28/17 A2987 RMK A01 T02820168  RH  050%=      5-min Rain = 0
KCL2 241654Z 18018G24KT 28/17 A2987 RMK A01 T02820167  RH  050%=      5-min Rain = 0
KCL2 241655Z 18022KT 28/17 A2987 RMK A01 T02810167  RH  050%=      5-min Rain = 0
KCL2 241656Z 17021G26KT 28/17 A2987 RMK A01 T02810166  RH  050%=      5-min Rain = 0
KCL2 241657Z 17021G26KT 28/17 A2987 RMK A01 T02790166  RH  050%=      5-min Rain = 0
KCL2 241658Z 17018G23KT 28/17 A2987 RMK A01 T02790166  RH  050%=      5-min Rain = 0
KCL2 241659Z 17020G25KT 28/17 A2987 RMK A01 T02790166  RH  050%=      5-min Rain = 0
KCL2 241700Z 17017KT 28/17 A2987 RMK A01 T02800167  RH  050%=      5-min Rain = 0
KCL2 241701Z 18017KT 28/17 A2987 RMK A01 T02810166  RH  050%=      5-min Rain = 0
KCL2 241702Z 18018KT 28/17 A2987 RMK A01 T02830168  RH  050%=      5-min Rain = 0
KCL2 241703Z 17017G22KT 28/17 A2987 RMK A01 T02840167  RH  049%=      5-min Rain = 0
KCL2 241704Z 18014G19KT 29/17 A2987 RMK A01 T02860169  RH  049%=      5-min Rain = 0
KCL2 241705Z 18018KT 29/17 A2987 RMK A01 T02860169  RH  049%=      5-min Rain = 0
KCL2 241706Z 19016G23KT 29/17 A2987 RMK A01 T02850171  RH  050%=      5-min Rain = 0
KCL2 241707Z 19014KT 29/17 A2987 RMK A01 T02860170  RH  049%=      5-min Rain = 0
KCL2 241708Z 19015G23KT 29/17 A2987 RMK A01 T02880173  RH  050%=      5-min Rain = 0
KCL2 241709Z 18020G25KT 29/17 A2987 RMK A01 T02910170  RH  048%=      5-min Rain = 0
KCL2 241710Z 18021KT 29/17 A2987 RMK A01 T02880169  RH  049%=      5-min Rain = 0
KCL2 241711Z 19017G22KT 29/17 A2987 RMK A01 T02870170  RH  049%=      5-min Rain = 0
KCL2 241712Z 19017KT 29/17 A2987 RMK A01 T02880170  RH  049%=      5-min Rain = 0
KCL2 241713Z 20017G23KT 29/17 A2987 RMK A01 T02880171  RH  049%=      5-min Rain = 0
KCL2 241714Z 20019G24KT 29/17 A2987 RMK A01 T02880170  RH  049%=      5-min Rain = 0
KCL2 241715Z 20016G22KT 29/17 A2987 RMK A01 T02880171  RH  049%=      5-min Rain = 0
KCL2 241716Z 18012KT 29/17 A2987 RMK A01 T02880171  RH  049%=      5-min Rain = 0
KCL2 241717Z 17011KT 29/17 A2987 RMK A01 T02880172  RH  050%=      5-min Rain = 0
KCL2 241718Z 20014G23KT 29/18 A2987 RMK A01 T02910176  RH  050%=      5-min Rain = 0
KCL2 241719Z 19020G25KT 30/17 A2987 RMK A01 T02950173  RH  048%=      5-min Rain = 0
KCL2 241720Z 19018KT 29/17 A2987 RMK A01 T02940171  RH  048%=      5-min Rain = 0
KCL2 241721Z 19018G25KT 29/17 A2987 RMK A01 T02900170  RH  048%=      5-min Rain = 0
KCL2 241722Z 19022G27KT 29/17 A2987 RMK A01 T02890169  RH  048%=      5-min Rain = 0
KCL2 241723Z 19022KT 29/17 A2987 RMK A01 T02880169  RH  048%=      5-min Rain = 0
KCL2 241724Z 19019G26KT 29/17 A2987 RMK A01 T02880170  RH  049%=      5-min Rain = 0
KCL2 241725Z 20022KT 29/17 A2986 RMK A01 T02870170  RH  049%=      5-min Rain = 0
KCL2 241726Z 20018KT 29/17 A2986 RMK A01 T02870170  RH  049%=      5-min Rain = 0
KCL2 241727Z 19019KT 29/17 A2986 RMK A01 T02880171  RH  049%=      5-min Rain = 0
KCL2 241728Z 18016KT 29/17 A2986 RMK A01 T02880171  RH  049%=      5-min Rain = 0
KCL2 241729Z 18016G23KT 29/17 A2986 RMK A01 T02890171  RH  049%=      5-min Rain = 0
KCL2 241730Z 18015KT 29/17 A2986 RMK A01 T02910174  RH  049%=      5-min Rain = 0
KCL2 241731Z 20016KT 30/17 A2986 RMK A01 T02950174  RH  048%=      5-min Rain = 0
KCL2 241732Z 20019KT 30/17 A2986 RMK A01 T02950171  RH  047%=      5-min Rain = 0
KCL2 241733Z 19017KT 29/17 A2986 RMK A01 T02940171  RH  048%=      5-min Rain = 0
KCL2 241734Z 19019G24KT 29/17 A2986 RMK A01 T02920171  RH  048%=      5-min Rain = 0
KCL2 241735Z 19017G22KT 29/17 A2986 RMK A01 T02930173  RH  048%=      5-min Rain = 0
KCL2 241736Z 19015KT 30/17 A2986 RMK A01 T02960174  RH  048%=      5-min Rain = 0
KCL2 241737Z 19018G24KT 30/17 A2986 RMK A01 T02970173  RH  047%=      5-min Rain = 0
KCL2 241738Z 19017G23KT 29/17 A2986 RMK A01 T02930172  RH  048%=      5-min Rain = 0
KCL2 241739Z 19014KT 29/17 A2986 RMK A01 T02920174  RH  049%=      5-min Rain = 0
KCL2 241740Z 19019KT 29/17 A2986 RMK A01 T02940172  RH  048%=      5-min Rain = 0
KCL2 241741Z 20021G26KT 30/17 A2986 RMK A01 T02950173  RH  048%=      5-min Rain = 0
KCL2 241742Z 20018G24KT 29/17 A2986 RMK A01 T02940170  RH  047%=      5-min Rain = 0
KCL2 241743Z 19016G23KT 29/17 A2986 RMK A01 T02930173  RH  048%=      5-min Rain = 0
KCL2 241744Z 19022KT 29/17 A2986 RMK A01 T02940172  RH  048%=      5-min Rain = 0
KCL2 241745Z 19021KT 29/17 A2985 RMK A01 T02920171  RH  048%=      5-min Rain = 0
KCL2 241746Z 20017KT 29/17 A2985 RMK A01 T02910173  RH  049%=      5-min Rain = 0
KCL2 241747Z 19019KT 29/17 A2985 RMK A01 T02920172  RH  048%=      5-min Rain = 0
KCL2 241748Z 20016G21KT 29/17 A2985 RMK A01 T02910172  RH  049%=      5-min Rain = 0
KCL2 241749Z 20018KT 29/17 A2985 RMK A01 T02920174  RH  049%=      5-min Rain = 0
KCL2 241750Z 20018G23KT 29/17 A2985 RMK A01 T02940173  RH  048%=      5-min Rain = 0
KCL2 241751Z 20016G24KT 29/17 A2985 RMK A01 T02920173  RH  048%=      5-min Rain = 0
KCL2 241752Z 18012G17KT 29/18 A2985 RMK A01 T02920176  RH  049%=      5-min Rain = 0
KCL2 241753Z 17014G20KT 30/17 A2985 RMK A01 T02950173  RH  048%=      5-min Rain = 0
KCL2 241754Z 18015G20KT 30/17 A2985 RMK A01 T02950173  RH  048%=      5-min Rain = 0
KCL2 241755Z 20022KT 30/17 A2985 RMK A01 T02970174  RH  048%=      5-min Rain = 0
KCL2 241756Z 21022KT 30/17 A2985 RMK A01 T02970174  RH  048%=      5-min Rain = 0
KCL2 241757Z 20016G21KT 30/18 A2985 RMK A01 T02950175  RH  048%=      5-min Rain = 0
KCL2 241758Z 19018KT 30/18 A2985 RMK A01 T02950177  RH  049%=      5-min Rain = 0
KCL2 241759Z 20017KT 30/18 A2985 RMK A01 T02960175  RH  048%=      5-min Rain = 0
KCL2 241800Z 21020KT 29/18 A2985 RMK A01 T02940175  RH  049%=      5-min Rain = 0
KCL2 241801Z 21017KT 29/18 A2985 RMK A01 T02940177  RH  049%=      5-min Rain = 0
KCL2 241802Z 19016KT 30/18 A2985 RMK A01 T02950175  RH  049%=      5-min Rain = 0
KCL2 241803Z 19017G22KT 30/17 A2985 RMK A01 T02970173  RH  047%=      5-min Rain = 0
KCL2 241804Z 18019KT 30/17 A2985 RMK A01 T02980172  RH  047%=      5-min Rain = 0
KCL2 241805Z 19018KT 30/17 A2984 RMK A01 T02980172  RH  047%=      5-min Rain = 0
KCL2 241806Z 19018KT 30/17 A2984 RMK A01 T02970174  RH  048%=      5-min Rain = 0
KCL2 241807Z 19016KT 30/17 A2984 RMK A01 T02980174  RH  047%=      5-min Rain = 0
KCL2 241808Z 20016G21KT 30/17 A2984 RMK A01 T02980174  RH  047%=      5-min Rain = 0
KCL2 241809Z 18018G23KT 30/18 A2984 RMK A01 T02980175  RH  048%=      5-min Rain = 0
KCL2 241810Z 19020G25KT 30/17 A2984 RMK A01 T02990173  RH  047%=      5-min Rain = 0
KCL2 241811Z 19019G25KT 30/17 A2984 RMK A01 T02970173  RH  047%=      5-min Rain = 0
KCL2 241812Z 18021KT 30/17 A2985 RMK A01 T02970174  RH  048%=      5-min Rain = 0
KCL2 241813Z 19018G23KT 30/17 A2984 RMK A01 T02960174  RH  048%=      5-min Rain = 0
KCL2 241814Z 19016G21KT 30/18 A2985 RMK A01 T02950176  RH  049%=      5-min Rain = 0
KCL2 241815Z 20016G22KT 30/18 A2985 RMK A01 T02960177  RH  049%=      5-min Rain = 0
KCL2 241816Z 20015KT 30/18 A2985 RMK A01 T02980177  RH  048%=      5-min Rain = 0
KCL2 241817Z 20014KT 30/18 A2984 RMK A01 T02970178  RH  049%=      5-min Rain = 0
KCL2 241818Z 19013KT 30/18 A2984 RMK A01 T02990178  RH  048%=      5-min Rain = 0
KCL2 241819Z 19019G25KT 30/18 A2984 RMK A01 T03020180  RH  048%=      5-min Rain = 0
KCL2 241820Z 20018G23KT 30/18 A2984 RMK A01 T03030175  RH  046%=      5-min Rain = 0
KCL2 241821Z 18016KT 30/18 A2984 RMK A01 T02990176  RH  047%=      5-min Rain = 0
KCL2 241822Z 18015G20KT 30/18 A2984 RMK A01 T02990175  RH  048%=      5-min Rain = 0
KCL2 241823Z 19017G23KT 30/17 A2984 RMK A01 T02980174  RH  047%=      5-min Rain = 0
KCL2 241824Z 20016KT 30/18 A2984 RMK A01 T02990175  RH  047%=      5-min Rain = 0
KCL2 241825Z 18015KT 30/18 A2984 RMK A01 T03020178  RH  047%=      5-min Rain = 0
KCL2 241826Z 19013G18KT 30/18 A2984 RMK A01 T03040179  RH  047%=      5-min Rain = 0
KCL2 241827Z 18017KT 30/18 A2984 RMK A01 T03040178  RH  047%=      5-min Rain = 0
KCL2 241828Z 19019G24KT 30/18 A2984 RMK A01 T03020177  RH  047%=      5-min Rain = 0
KCL2 241829Z 20013KT 30/18 A2984 RMK A01 T03000178  RH  048%=      5-min Rain = 0
KCL2 241830Z 20019KT 30/18 A2984 RMK A01 T03010179  RH  048%=      5-min Rain = 0
KCL2 241831Z 20019KT 30/18 A2984 RMK A01 T03020179  RH  048%=      5-min Rain = 0
KCL2 241832Z 19021G27KT 30/18 A2984 RMK A01 T03020177  RH  047%=      5-min Rain = 0
KCL2 241833Z 19018KT 30/18 A2984 RMK A01 T03010177  RH  047%=      5-min Rain = 0
KCL2 241834Z 18016G21KT 30/18 A2984 RMK A01 T03020179  RH  048%=      5-min Rain = 0
KCL2 241835Z 18016KT 30/18 A2983 RMK A01 T03040176  RH  046%=      5-min Rain = 0
KCL2 241836Z 18018KT 30/18 A2983 RMK A01 T03030176  RH  047%=      5-min Rain = 0
KCL2 241837Z 19014G19KT 30/18 A2983 RMK A01 T03030178  RH  047%=      5-min Rain = 0
KCL2 241838Z 19017KT 31/18 A2983 RMK A01 T03060179  RH  047%=      5-min Rain = 0
KCL2 241839Z 19017KT 31/18 A2983 RMK A01 T03070179  RH  046%=      5-min Rain = 0
KCL2 241840Z 19018KT 30/18 A2983 RMK A01 T03040177  RH  046%=      5-min Rain = 0
KCL2 241841Z 18014KT 30/18 A2983 RMK A01 T03010177  RH  047%=      5-min Rain = 0
KCL2 241842Z 19013G18KT 30/18 A2983 RMK A01 T03000179  RH  048%=      5-min Rain = 0
KCL2 241843Z 19016G22KT 30/18 A2983 RMK A01 T03010178  RH  048%=      5-min Rain = 0
KCL2 241844Z 20019G24KT 30/18 A2983 RMK A01 T03030177  RH  047%=      5-min Rain = 0
KCL2 241845Z 20020KT 30/18 A2983 RMK A01 T03040176  RH  046%=      5-min Rain = 0
KCL2 241846Z 21018KT 30/18 A2982 RMK A01 T03030176  RH  047%=      5-min Rain = 0
KCL2 241847Z 19015KT 30/18 A2983 RMK A01 T03030179  RH  047%=      5-min Rain = 0
KCL2 241848Z 19020KT 31/18 A2982 RMK A01 T03060179  RH  047%=      5-min Rain = 0
KCL2 241849Z 19016KT 31/18 A2983 RMK A01 T03050177  RH  046%=      5-min Rain = 0
KCL2 241850Z 19014G21KT 30/18 A2982 RMK A01 T03040177  RH  047%=      5-min Rain = 0
KCL2 241851Z 19015KT 31/18 A2982 RMK A01 T03050177  RH  046%=      5-min Rain = 0
KCL2 241852Z 18015KT 31/18 A2982 RMK A01 T03050175  RH  046%=      5-min Rain = 0
KCL2 241853Z 18015KT 30/18 A2982 RMK A01 T03030176  RH  046%=      5-min Rain = 0
KCL2 241854Z 19018KT 30/18 A2982 RMK A01 T03040177  RH  047%=      5-min Rain = 0
KCL2 241855Z 19014KT 31/18 A2982 RMK A01 T03060178  RH  046%=      5-min Rain = 0
KCL2 241856Z 19015KT 31/18 A2982 RMK A01 T03060177  RH  046%=      5-min Rain = 0
KCL2 241857Z 21018G24KT 31/18 A2982 RMK A01 T03060179  RH  047%=      5-min Rain = 0
KCL2 241858Z 21017G22KT 31/18 A2982 RMK A01 T03060176  RH  046%=      5-min Rain = 0
KCL2 241859Z 21017KT 30/18 A2981 RMK A01 T03040176  RH  046%=      5-min Rain = 0
KCL2 241900Z 21016KT 30/18 A2981 RMK A01 T03030175  RH  046%=      5-min Rain = 0
KCL2 241901Z 22018KT 30/18 A2981 RMK A01 T03040177  RH  047%=      5-min Rain = 0
KCL2 241902Z 19014G19KT 30/18 A2982 RMK A01 T03040176  RH  046%=      5-min Rain = 0
KCL2 241903Z 17017KT 31/17 A2981 RMK A01 T03060173  RH  045%=      5-min Rain = 0
KCL2 241904Z 18016KT 30/17 A2981 RMK A01 T03040173  RH  045%=      5-min Rain = 0
KCL2 241905Z 19020G27KT 30/18 A2981 RMK A01 T03030175  RH  046%=      5-min Rain = 0
KCL2 241906Z 20014KT 30/18 A2981 RMK A01 T03040176  RH  046%=      5-min Rain = 0
KCL2 241907Z 18017G24KT 31/17 A2981 RMK A01 T03050174  RH  046%=      5-min Rain = 0
KCL2 241908Z 18019KT 31/17 A2981 RMK A01 T03060170  RH  044%=      5-min Rain = 0
KCL2 241909Z 18020KT 31/17 A2981 RMK A01 T03050172  RH  045%=      5-min Rain = 0
KCL2 241910Z 17015KT 30/18 A2981 RMK A01 T03030175  RH  046%=      5-min Rain = 0
KCL2 241911Z 17015KT 31/17 A2981 RMK A01 T03050174  RH  046%=      5-min Rain = 0
KCL2 241912Z 18015G23KT 31/18 A2981 RMK A01 T03060177  RH  046%=      5-min Rain = 0
KCL2 241913Z 19015G23KT 31/18 A2981 RMK A01 T03090177  RH  045%=      5-min Rain = 0
KCL2 241914Z 19019KT 31/18 A2981 RMK A01 T03080176  RH  045%=      5-min Rain = 0
KCL2 241915Z 19013G19KT 31/18 A2981 RMK A01 T03050175  RH  046%=      5-min Rain = 0
KCL2 241916Z 19015G27KT 31/18 A2981 RMK A01 T03060179  RH  047%=      5-min Rain = 0
KCL2 241917Z 19015G22KT 31/18 A2981 RMK A01 T03090176  RH  045%=      5-min Rain = 0
KCL2 241918Z 18017G24KT 31/18 A298 RMK A01 T03090175  RH  045%=      5-min Rain = 0
KCL2 241919Z 19019KT 31/18 A2981 RMK A01 T03090176  RH  045%=      5-min Rain = 0
KCL2 241920Z 19017G22KT 31/18 A2981 RMK A01 T03090175  RH  045%=      5-min Rain = 0
KCL2 241921Z 20018KT 31/17 A298 RMK A01 T03080174  RH  045%=      5-min Rain = 0
KCL2 241922Z 19018G23KT 31/17 A298 RMK A01 T03050173  RH  045%=      5-min Rain = 0
KCL2 241923Z 19014KT 31/18 A298 RMK A01 T03050176  RH  046%=      5-min Rain = 0
KCL2 241924Z 19014G20KT 31/17 A298 RMK A01 T03070173  RH  045%=      5-min Rain = 0
KCL2 241925Z 18012KT 31/18 A298 RMK A01 T03060177  RH  046%=      5-min Rain = 0
KCL2 241926Z 19013G20KT 31/18 A298 RMK A01 T03100180  RH  046%=      5-min Rain = 0
KCL2 241927Z 19018KT 31/18 A298 RMK A01 T03120177  RH  044%=      5-min Rain = 0
KCL2 241928Z 19015KT 31/18 A298 RMK A01 T03090175  RH  045%=      5-min Rain = 0
KCL2 241929Z 18012KT 31/18 A298 RMK A01 T03060176  RH  046%=      5-min Rain = 0
KCL2 241930Z 19015KT 31/18 A298 RMK A01 T03070177  RH  046%=      5-min Rain = 0
KCL2 241931Z 22018KT 31/18 A298 RMK A01 T03100177  RH  045%=      5-min Rain = 0
KCL2 241932Z 22016KT 31/17 A2979 RMK A01 T03090174  RH  044%=      5-min Rain = 0
KCL2 241933Z 21015KT 31/18 A2979 RMK A01 T03070175  RH  045%=      5-min Rain = 0
KCL2 241934Z 22016KT 31/17 A2979 RMK A01 T03080174  RH  045%=      5-min Rain = 0
KCL2 241935Z 19014KT 31/18 A298 RMK A01 T03100177  RH  045%=      5-min Rain = 0
KCL2 241936Z 20016G23KT 31/18 A2979 RMK A01 T03100176  RH  045%=      5-min Rain = 0
KCL2 241937Z 19015KT 31/18 A298 RMK A01 T03080176  RH  045%=      5-min Rain = 0
KCL2 241938Z 20014KT 31/18 A2979 RMK A01 T03050176  RH  046%=      5-min Rain = 0
KCL2 241939Z 19015KT 30/18 A2979 RMK A01 T03030177  RH  047%=      5-min Rain = 0
KCL2 241940Z 17013G19KT 30/18 A2979 RMK A01 T03030178  RH  047%=      5-min Rain = 0
KCL2 241941Z 17014KT 31/18 A2979 RMK A01 T03050178  RH  047%=      5-min Rain = 0
KCL2 241942Z 18013G18KT 31/18 A2979 RMK A01 T03060178  RH  046%=      5-min Rain = 0
KCL2 241943Z 17015KT 31/18 A2979 RMK A01 T03060177  RH  046%=      5-min Rain = 0
KCL2 241944Z 18013KT 31/18 A2979 RMK A01 T03070178  RH  046%=      5-min Rain = 0
KCL2 241945Z 17012G17KT 31/18 A2979 RMK A01 T03100180  RH  046%=      5-min Rain = 0
KCL2 241946Z 18013KT 31/18 A2979 RMK A01 T03120176  RH  044%=      5-min Rain = 0
KCL2 241947Z 19010KT 31/18 A2979 RMK A01 T03100178  RH  045%=      5-min Rain = 0
KCL2 241948Z 20013G18KT 31/18 A2979 RMK A01 T03100180  RH  046%=      5-min Rain = 0
KCL2 241949Z 19014KT 31/18 A2979 RMK A01 T03120178  RH  045%=      5-min Rain = 0
KCL2 241950Z 20011KT 31/18 A2979 RMK A01 T03130179  RH  045%=      5-min Rain = 0
KCL2 241951Z 20013KT 31/18 A2979 RMK A01 T03130178  RH  044%=      5-min Rain = 0
KCL2 241952Z 18011KT 32/18 A2979 RMK A01 T03150179  RH  044%=      5-min Rain = 0
KCL2 241953Z 18009KT 32/18 A2979 RMK A01 T03160176  RH  043%=      5-min Rain = 0
KCL2 241954Z 19012KT 32/18 A2979 RMK A01 T03160178  RH  044%=      5-min Rain = 0
KCL2 241955Z 19015KT 32/18 A2979 RMK A01 T03170175  RH  043%=      5-min Rain = 0
KCL2 241956Z 17014KT 31/17 A2979 RMK A01 T03130173  RH  043%=      5-min Rain = 0
KCL2 241957Z 19013KT 31/18 A2979 RMK A01 T03110177  RH  045%=      5-min Rain = 0
KCL2 241958Z 18014G19KT 31/18 A2979 RMK A01 T03140177  RH  044%=      5-min Rain = 0
KCL2 241959Z 17016KT 31/18 A2978 RMK A01 T03140175  RH  043%=      5-min Rain = 0
KCL2 242000Z 20013KT 31/18 A2979 RMK A01 T03120179  RH  045%=      5-min Rain = 0
KCL2 242001Z 20013KT 31/18 A2979 RMK A01 T03140181  RH  045%=      5-min Rain = 0
KCL2 242002Z 18017KT 32/18 A2978 RMK A01 T03150178  RH  044%=      5-min Rain = 0
KCL2 242003Z 18013KT 31/18 A2979 RMK A01 T03110176  RH  045%=      5-min Rain = 0
KCL2 242004Z 18013KT 31/18 A2978 RMK A01 T03080176  RH  045%=      5-min Rain = 0
KCL2 242005Z 17015KT 31/18 A2978 RMK A01 T03060175  RH  045%=      5-min Rain = 0
KCL2 242006Z 17016G21KT 31/17 A2978 RMK A01 T03060174  RH  045%=      5-min Rain = 0
KCL2 242007Z 16016KT 31/18 A2978 RMK A01 T03100177  RH  045%=      5-min Rain = 0
KCL2 242008Z 17015KT 31/17 A2978 RMK A01 T03120173  RH  043%=      5-min Rain = 0
KCL2 242009Z 18014G20KT 31/18 A2978 RMK A01 T03100176  RH  045%=      5-min Rain = 0
KCL2 242010Z 18014KT 31/18 A2978 RMK A01 T03110177  RH  045%=      5-min Rain = 0
KCL2 242011Z 19014KT 31/18 A2978 RMK A01 T03110178  RH  045%=      5-min Rain = 0
KCL2 242012Z 19018G23KT 31/18 A2978 RMK A01 T03100176  RH  045%=      5-min Rain = 0
KCL2 242013Z 18017KT 31/18 A2978 RMK A01 T03070175  RH  045%=      5-min Rain = 0
KCL2 242014Z 19011KT 30/18 A2978 RMK A01 T03040175  RH  046%=      5-min Rain = 0
KCL2 242015Z 16012KT 31/18 A2978 RMK A01 T03050178  RH  047%=      5-min Rain = 0
KCL2 242016Z 17013KT 31/18 A2977 RMK A01 T03070176  RH  046%=      5-min Rain = 0
KCL2 242017Z 18012KT 31/18 A2978 RMK A01 T03060175  RH  045%=      5-min Rain = 0
KCL2 242018Z 19015G20KT 31/18 A2978 RMK A01 T03070177  RH  046%=      5-min Rain = 0
KCL2 242019Z 20017KT 31/18 A2977 RMK A01 T03110178  RH  045%=      5-min Rain = 0
KCL2 242020Z 19015KT 32/18 A2977 RMK A01 T03150179  RH  044%=      5-min Rain = 0
KCL2 242021Z 19013KT 32/18 A2977 RMK A01 T03150179  RH  044%=      5-min Rain = 0
KCL2 242022Z 19017G23KT 32/18 A2977 RMK A01 T03160177  RH  044%=      5-min Rain = 0
KCL2 242023Z 20014KT 32/18 A2977 RMK A01 T03160180  RH  044%=      5-min Rain = 0
KCL2 242024Z 20015KT 32/18 A2977 RMK A01 T03160177  RH  043%=      5-min Rain = 0
KCL2 242025Z 20014KT 32/18 A2977 RMK A01 T03150177  RH  044%=      5-min Rain = 0
KCL2 242026Z 21012KT 32/18 A2977 RMK A01 T03150180  RH  044%=      5-min Rain = 0
KCL2 242027Z 20013G21KT 32/18 A2977 RMK A01 T03160178  RH  044%=      5-min Rain = 0
KCL2 242028Z 19017G22KT 32/18 A2977 RMK A01 T03160176  RH  043%=      5-min Rain = 0
KCL2 242029Z 20018KT 32/18 A2977 RMK A01 T03170176  RH  043%=      5-min Rain = 0
KCL2 242030Z 19018KT 32/18 A2977 RMK A01 T03170175  RH  043%=      5-min Rain = 0
KCL2 242031Z 19015KT 32/17 A2977 RMK A01 T03150174  RH  043%=      5-min Rain = 0
KCL2 242032Z 19011KT 31/18 A2977 RMK A01 T03140176  RH  044%=      5-min Rain = 0
KCL2 242033Z 20012KT 32/18 A2977 RMK A01 T03150177  RH  044%=      5-min Rain = 0
KCL2 242034Z 21012G18KT 32/18 A2977 RMK A01 T03160178  RH  044%=      5-min Rain = 0
KCL2 242035Z 19011KT 32/18 A2976 RMK A01 T03180178  RH  043%=      5-min Rain = 0
KCL2 242036Z 21009KT 32/18 A2976 RMK A01 T03190181  RH  044%=      5-min Rain = 0
KCL2 242037Z 21007KT 32/18 A2976 RMK A01 T03230183  RH  044%=      5-min Rain = 0
KCL2 242038Z 21010KT 33/19 A2976 RMK A01 T03260185  RH  043%=      5-min Rain = 0
KCL2 242039Z 21012KT 33/18 A2976 RMK A01 T03250181  RH  042%=      5-min Rain = 0
KCL2 242040Z 19017KT 32/18 A2976 RMK A01 T03230179  RH  042%=      5-min Rain = 0
KCL2 242041Z 18015KT 32/18 A2976 RMK A01 T03190177  RH  043%=      5-min Rain = 0
KCL2 242042Z 20012KT 32/18 A2976 RMK A01 T03180177  RH  043%=      5-min Rain = 0
KCL2 242043Z 20012KT 32/18 A2976 RMK A01 T03160178  RH  044%=      5-min Rain = 0
KCL2 242044Z 20010KT 32/18 A2976 RMK A01 T03160178  RH  044%=      5-min Rain = 0
KCL2 242045Z 18015KT 32/18 A2976 RMK A01 T03180178  RH  043%=      5-min Rain = 0
KCL2 242046Z 19015KT 32/18 A2976 RMK A01 T03180175  RH  042%=      5-min Rain = 0
KCL2 242047Z 20015G21KT 32/17 A2976 RMK A01 T03150173  RH  043%=      5-min Rain = 0
KCL2 242048Z 19011KT 31/18 A2976 RMK A01 T03140175  RH  044%=      5-min Rain = 0
KCL2 242049Z 17010KT 31/17 A2976 RMK A01 T03140173  RH  043%=      5-min Rain = 0
KCL2 242050Z 16009KT 32/18 A2976 RMK A01 T03150175  RH  043%=      5-min Rain = 0
KCL2 242051Z 18010KT 32/18 A2976 RMK A01 T03160177  RH  043%=      5-min Rain = 0
KCL2 242052Z 19013KT 32/18 A2976 RMK A01 T03200180  RH  043%=      5-min Rain = 0
KCL2 242053Z 20014G19KT 32/18 A2976 RMK A01 T03220181  RH  043%=      5-min Rain = 0
KCL2 242054Z 20017KT 32/18 A2975 RMK A01 T03230179  RH  042%=      5-min Rain = 0
KCL2 242055Z 20013KT 32/18 A2976 RMK A01 T03190177  RH  043%=      5-min Rain = 0
KCL2 242056Z 19015KT 32/18 A2976 RMK A01 T03180178  RH  043%=      5-min Rain = 0
KCL2 242057Z 20015KT 32/18 A2975 RMK A01 T03180176  RH  043%=      5-min Rain = 0
KCL2 242058Z 19011KT 32/18 A2976 RMK A01 T03170177  RH  043%=      5-min Rain = 0
KCL2 242059Z 19010G16KT 32/18 A2975 RMK A01 T03160177  RH  044%=      5-min Rain = 0
KCL2 242100Z 20015KT 32/18 A2975 RMK A01 T03160176  RH  043%=      5-min Rain = 0
KCL2 242101Z 19012G18KT 32/17 A2975 RMK A01 T03160174  RH  043%=      5-min Rain = 0
KCL2 242102Z 19015G21KT 32/18 A2975 RMK A01 T03170178  RH  044%=      5-min Rain = 0
KCL2 242103Z 20010KT 32/18 A2975 RMK A01 T03200179  RH  043%=      5-min Rain = 0
KCL2 242104Z 19011KT 32/18 A2975 RMK A01 T03220181  RH  043%=      5-min Rain = 0
KCL2 242105Z 19011KT 32/18 A2975 RMK A01 T03240179  RH  042%=      5-min Rain = 0
KCL2 242106Z 21011G16KT 32/18 A2975 RMK A01 T03240178  RH  042%=      5-min Rain = 0
KCL2 242107Z 20010G17KT 32/18 A2975 RMK A01 T03210176  RH  042%=      5-min Rain = 0
KCL2 242108Z 19012KT 32/18 A2975 RMK A01 T03200175  RH  042%=      5-min Rain = 0
KCL2 242109Z 21012G17KT 32/18 A2975 RMK A01 T03190177  RH  043%=      5-min Rain = 0
KCL2 242110Z 20012KT 32/18 A2975 RMK A01 T03220182  RH  043%=      5-min Rain = 0
KCL2 242111Z 21012KT 33/18 A2975 RMK A01 T03260177  RH  041%=      5-min Rain = 0
KCL2 242112Z 21009KT 32/18 A2975 RMK A01 T03220176  RH  042%=      5-min Rain = 0
KCL2 242113Z 21010KT 32/18 A2975 RMK A01 T03210180  RH  043%=      5-min Rain = 0
KCL2 242114Z 20009KT 32/18 A2975 RMK A01 T03220177  RH  042%=      5-min Rain = 0
KCL2 242115Z 21011KT 32/18 A2975 RMK A01 T03220179  RH  042%=      5-min Rain = 0
KCL2 242116Z 20018KT 32/18 A2974 RMK A01 T03210176  RH  042%=      5-min Rain = 0
KCL2 242117Z 20016KT 32/18 A2974 RMK A01 T03210176  RH  042%=      5-min Rain = 0
KCL2 242118Z 21012KT 32/18 A2974 RMK A01 T03210177  RH  042%=      5-min Rain = 0
KCL2 242119Z 21016KT 32/18 A2974 RMK A01 T03230177  RH  042%=      5-min Rain = 0
KCL2 242120Z 20013KT 32/17 A2974 RMK A01 T03230174  RH  041%=      5-min Rain = 0
KCL2 242121Z 20012KT 32/17 A2974 RMK A01 T03210173  RH  041%=      5-min Rain = 0
KCL2 242122Z 21009KT 32/17 A2974 RMK A01 T03190173  RH  042%=      5-min Rain = 0
KCL2 242123Z 21006KT 32/17 A2974 RMK A01 T03190173  RH  042%=      5-min Rain = 0
KCL2 242124Z 20007G13KT 32/17 A2974 RMK A01 T03200174  RH  042%=      5-min Rain = 0
KCL2 242125Z 19016KT 32/18 A2974 RMK A01 T03220176  RH  042%=      5-min Rain = 0
KCL2 242126Z 19016KT 32/18 A2974 RMK A01 T03220176  RH  042%=      5-min Rain = 0
KCL2 242127Z 19011KT 32/18 A2974 RMK A01 T03220176  RH  042%=      5-min Rain = 0
KCL2 242128Z 19011KT 32/18 A2973 RMK A01 T03220179  RH  042%=      5-min Rain = 0
KCL2 242129Z 17011KT 33/18 A2973 RMK A01 T03250178  RH  042%=      5-min Rain = 0
KCL2 242130Z 18014KT 32/18 A2973 RMK A01 T03240176  RH  041%=      5-min Rain = 0
KCL2 242131Z 19011KT 32/18 A2973 RMK A01 T03180175  RH  042%=      5-min Rain = 0
KCL2 242132Z 18012KT 32/18 A2973 RMK A01 T03150175  RH  043%=      5-min Rain = 0
KCL2 242133Z 16012KT 31/18 A2973 RMK A01 T03140175  RH  044%=      5-min Rain = 0
KCL2 242134Z 17011KT 31/17 A2973 RMK A01 T03140174  RH  043%=      5-min Rain = 0
KCL2 242135Z 16010KT 32/18 A2973 RMK A01 T03150177  RH  044%=      5-min Rain = 0
KCL2 242136Z 17011KT 32/18 A2973 RMK A01 T03190179  RH  043%=      5-min Rain = 0
KCL2 242137Z 20012KT 32/18 A2973 RMK A01 T03220177  RH  042%=      5-min Rain = 0
KCL2 242138Z 18011KT 32/18 A2973 RMK A01 T03210178  RH  042%=      5-min Rain = 0
KCL2 242139Z 19009KT 32/18 A2973 RMK A01 T03190177  RH  043%=      5-min Rain = 0
KCL2 242140Z 20013KT 32/18 A2973 RMK A01 T03180178  RH  043%=      5-min Rain = 0
KCL2 242141Z 19011KT 31/17 A2973 RMK A01 T03140173  RH  043%=      5-min Rain = 0
KCL2 242142Z 19011G16KT 31/17 A2973 RMK A01 T03120174  RH  044%=      5-min Rain = 0
KCL2 242143Z 17012KT 31/18 A2973 RMK A01 T03130175  RH  044%=      5-min Rain = 0
KCL2 242144Z 18010KT 32/18 A2973 RMK A01 T03170175  RH  043%=      5-min Rain = 0
KCL2 242145Z 18009KT 32/18 A2973 RMK A01 T03200175  RH  042%=      5-min Rain = 0
KCL2 242146Z 17010KT 32/17 A2972 RMK A01 T03200173  RH  042%=      5-min Rain = 0
KCL2 242147Z 19010KT 32/17 A2972 RMK A01 T03180172  RH  042%=      5-min Rain = 0
KCL2 242148Z 19010KT 32/18 A2972 RMK A01 T03160176  RH  043%=      5-min Rain = 0
KCL2 242149Z 20012KT 32/17 A2972 RMK A01 T03170174  RH  042%=      5-min Rain = 0
KCL2 242150Z 20012G17KT 32/17 A2972 RMK A01 T03170174  RH  042%=      5-min Rain = 0
KCL2 242151Z 20010KT 31/17 A2972 RMK A01 T03140173  RH  043%=      5-min Rain = 0
KCL2 242152Z 19013KT 32/17 A2972 RMK A01 T03150173  RH  043%=      5-min Rain = 0
KCL2 242153Z 19011KT 32/17 A2972 RMK A01 T03180169  RH  041%=      5-min Rain = 0
KCL2 242154Z 21009KT 32/17 A2972 RMK A01 T03190174  RH  042%=      5-min Rain = 0
KCL2 242155Z 21010KT 32/17 A2972 RMK A01 T03210171  RH  041%=      5-min Rain = 0
KCL2 242156Z 21010KT 32/17 A2972 RMK A01 T03210173  RH  041%=      5-min Rain = 0
KCL2 242157Z 20010KT 32/18 A2972 RMK A01 T03210175  RH  042%=      5-min Rain = 0
KCL2 242158Z 19009KT 32/18 A2971 RMK A01 T03220175  RH  041%=      5-min Rain = 0
KCL2 242159Z 21008KT 32/18 A2971 RMK A01 T03220178  RH  042%=      5-min Rain = 0
KCL2 242200Z 18008KT 33/18 A2971 RMK A01 T03250178  RH  042%=      5-min Rain = 0
KCL2 242201Z 18010KT 33/18 A2971 RMK A01 T03260178  RH  041%=      5-min Rain = 0
KCL2 242202Z 18013KT 33/18 A2971 RMK A01 T03260179  RH  042%=      5-min Rain = 0
KCL2 242203Z 17012KT 32/18 A2971 RMK A01 T03220178  RH  042%=      5-min Rain = 0
KCL2 242204Z 17010KT 32/18 A2971 RMK A01 T03180175  RH  043%=      5-min Rain = 0
KCL2 242205Z 16009KT 31/17 A2971 RMK A01 T03140173  RH  043%=      5-min Rain = 0
KCL2 242206Z 16007KT 31/17 A2971 RMK A01 T03110174  RH  044%=      5-min Rain = 0
KCL2 242207Z 17005KT 31/18 A2971 RMK A01 T03110176  RH  045%=      5-min Rain = 0
KCL2 242208Z 16007KT 31/18 A2971 RMK A01 T03120176  RH  044%=      5-min Rain = 0
KCL2 242209Z 16007KT 32/18 A2971 RMK A01 T03150177  RH  044%=      5-min Rain = 0
KCL2 242210Z 18008KT 32/18 A2971 RMK A01 T03170176  RH  043%=      5-min Rain = 0
KCL2 242211Z 17008KT 32/18 A2971 RMK A01 T03150176  RH  043%=      5-min Rain = 0
KCL2 242212Z 16009KT 32/18 A2971 RMK A01 T03150175  RH  043%=      5-min Rain = 0
KCL2 242213Z 16012KT 32/17 A2971 RMK A01 T03150174  RH  043%=      5-min Rain = 0
KCL2 242214Z 15013KT 32/18 A2971 RMK A01 T03150175  RH  043%=      5-min Rain = 0
KCL2 242215Z 18013KT 32/18 A2971 RMK A01 T03150175  RH  043%=      5-min Rain = 0
KCL2 242216Z 17014KT 31/17 A2971 RMK A01 T03130174  RH  043%=      5-min Rain = 0
KCL2 242217Z 17012KT 31/17 A2971 RMK A01 T03110172  RH  043%=      5-min Rain = 0
KCL2 242218Z 17010KT 31/17 A2971 RMK A01 T03100171  RH  043%=      5-min Rain = 0
KCL2 242219Z 15009KT 31/17 A2971 RMK A01 T03080172  RH  044%=      5-min Rain = 0
KCL2 242220Z 16007KT 31/17 A2971 RMK A01 T03090173  RH  044%=      5-min Rain = 0
KCL2 242221Z 15006KT 31/17 A2971 RMK A01 T03100174  RH  044%=      5-min Rain = 0
KCL2 242222Z 15008G14KT 31/18 A2971 RMK A01 T03120176  RH  044%=      5-min Rain = 0
KCL2 242223Z 16011KT 31/17 A2971 RMK A01 T03130174  RH  043%=      5-min Rain = 0
KCL2 242224Z 15008KT 32/18 A2971 RMK A01 T03160176  RH  043%=      5-min Rain = 0
KCL2 242225Z 15008KT 32/18 A2971 RMK A01 T03180175  RH  042%=      5-min Rain = 0
KCL2 242226Z 15008KT 32/18 A2971 RMK A01 T03170175  RH  043%=      5-min Rain = 0
KCL2 242227Z 15008KT 32/18 A2971 RMK A01 T03160175  RH  043%=      5-min Rain = 0
KCL2 242228Z 17006KT 32/18 A2971 RMK A01 T03150175  RH  043%=      5-min Rain = 0
KCL2 242229Z 15005KT 31/18 A2971 RMK A01 T03140175  RH  043%=      5-min Rain = 0
KCL2 242230Z 15007KT 31/17 A2971 RMK A01 T03140174  RH  043%=      5-min Rain = 0
KCL2 242231Z 16008KT 31/17 A2971 RMK A01 T03140173  RH  043%=      5-min Rain = 0
KCL2 242232Z 16010KT 32/18 A2971 RMK A01 T03150176  RH  044%=      5-min Rain = 0
KCL2 242233Z 15009KT 32/18 A2971 RMK A01 T03160176  RH  043%=      5-min Rain = 0
KCL2 242234Z 14008KT 32/18 A2971 RMK A01 T03170175  RH  043%=      5-min Rain = 0
KCL2 242235Z 17010KT 32/18 A2971 RMK A01 T03170176  RH  043%=      5-min Rain = 0
KCL2 242236Z 17009KT 32/17 A2971 RMK A01 T03160174  RH  043%=      5-min Rain = 0
KCL2 242237Z 18009KT 31/18 A2971 RMK A01 T03140175  RH  044%=      5-min Rain = 0
KCL2 242238Z 18009KT 31/18 A2971 RMK A01 T03130175  RH  044%=      5-min Rain = 0
KCL2 242239Z 17009KT 31/17 A2971 RMK A01 T03120172  RH  043%=      5-min Rain = 0
KCL2 242240Z 18008KT 31/17 A2971 RMK A01 T03110173  RH  044%=      5-min Rain = 0
KCL2 242241Z 18009KT 31/17 A2971 RMK A01 T03100172  RH  044%=      5-min Rain = 0
KCL2 242242Z 18012G17KT 31/17 A2971 RMK A01 T03100172  RH  044%=      5-min Rain = 0
KCL2 242243Z 17011G16KT 31/17 A2971 RMK A01 T03120172  RH  043%=      5-min Rain = 0
KCL2 242244Z 17010G15KT 31/17 A2971 RMK A01 T03130174  RH  043%=      5-min Rain = 0
KCL2 242245Z 18013KT 31/17 A2971 RMK A01 T03140174  RH  043%=      5-min Rain = 0
KCL2 242246Z 17013KT 31/17 A2971 RMK A01 T03120173  RH  043%=      5-min Rain = 0
KCL2 242247Z 17012KT 31/17 A2971 RMK A01 T03110173  RH  044%=      5-min Rain = 0
KCL2 242248Z 17011KT 31/17 A2971 RMK A01 T03090172  RH  044%=      5-min Rain = 0
KCL2 242249Z 17013KT 31/17 A2971 RMK A01 T03090172  RH  044%=      5-min Rain = 0
KCL2 242250Z 17012KT 31/17 A2971 RMK A01 T03080171  RH  044%=      5-min Rain = 0
KCL2 242251Z 17012KT 31/17 A2971 RMK A01 T03080169  RH  043%=      5-min Rain = 0
KCL2 242252Z 16011KT 31/17 A2971 RMK A01 T03070168  RH  043%=      5-min Rain = 0
KCL2 242253Z 17009KT 31/17 A2971 RMK A01 T03070168  RH  043%=      5-min Rain = 0
KCL2 242254Z 19009KT 31/17 A2971 RMK A01 T03090171  RH  044%=      5-min Rain = 0
KCL2 242255Z 19008KT 31/18 A2971 RMK A01 T03140177  RH  044%=      5-min Rain = 0
KCL2 242256Z 19010KT 32/18 A2971 RMK A01 T03200178  RH  043%=      5-min Rain = 0
KCL2 242257Z 19012KT 32/18 A297 RMK A01 T03240177  RH  042%=      5-min Rain = 0
KCL2 242258Z 19011KT 32/18 A2971 RMK A01 T03220175  RH  041%=      5-min Rain = 0
KCL2 242259Z 18010KT 32/17 A2971 RMK A01 T03190174  RH  042%=      5-min Rain = 0
KCL2 242300Z 17009KT 32/17 A297 RMK A01 T03180174  RH  042%=      5-min Rain = 0
KCL2 242301Z 18007KT 32/17 A297 RMK A01 T03160173  RH  042%=      5-min Rain = 0
KCL2 242302Z 18007KT 32/18 A297 RMK A01 T03150177  RH  044%=      5-min Rain = 0
KCL2 242303Z 17007KT 32/18 A297 RMK A01 T03150177  RH  044%=      5-min Rain = 0
KCL2 242304Z 17010KT 31/18 A297 RMK A01 T03140175  RH  044%=      5-min Rain = 0
KCL2 242305Z 17011KT 31/17 A297 RMK A01 T03130173  RH  043%=      5-min Rain = 0
KCL2 242306Z 17011KT 31/17 A297 RMK A01 T03110172  RH  043%=      5-min Rain = 0
KCL2 242307Z 16011KT 31/17 A297 RMK A01 T03100171  RH  043%=      5-min Rain = 0
KCL2 242308Z 16011KT 31/17 A297 RMK A01 T03100170  RH  043%=      5-min Rain = 0
KCL2 242309Z 16012KT 31/17 A297 RMK A01 T03120171  RH  043%=      5-min Rain = 0
KCL2 242310Z 15010KT 32/17 A297 RMK A01 T03150171  RH  042%=      5-min Rain = 0
KCL2 242311Z 14012KT 32/17 A297 RMK A01 T03170173  RH  042%=      5-min Rain = 0
KCL2 242312Z 15012KT 32/17 A297 RMK A01 T03180172  RH  042%=      5-min Rain = 0
KCL2 242313Z 16011KT 32/17 A297 RMK A01 T03190171  RH  041%=      5-min Rain = 0
KCL2 242314Z 15011KT 32/17 A297 RMK A01 T03200170  RH  041%=      5-min Rain = 0
KCL2 242315Z 14011KT 32/17 A297 RMK A01 T03200171  RH  041%=      5-min Rain = 0
KCL2 242316Z 15011KT 32/17 A297 RMK A01 T03200171  RH  041%=      5-min Rain = 0
KCL2 242317Z 14010KT 32/17 A297 RMK A01 T03200172  RH  041%=      5-min Rain = 0
KCL2 242318Z 14007G12KT 32/17 A297 RMK A01 T03210174  RH  041%=      5-min Rain = 0
KCL2 242319Z 14013KT 32/17 A297 RMK A01 T03230173  RH  041%=      5-min Rain = 0
KCL2 242320Z 15010KT 32/17 A297 RMK A01 T03230172  RH  041%=      5-min Rain = 0
KCL2 242321Z 14009G14KT 32/17 A297 RMK A01 T03220173  RH  041%=      5-min Rain = 0
KCL2 242322Z 16013KT 32/17 A297 RMK A01 T03200172  RH  041%=      5-min Rain = 0
KCL2 242323Z 15015KT 32/17 A297 RMK A01 T03170169  RH  041%=      5-min Rain = 0
KCL2 242324Z 16013KT 31/17 A297 RMK A01 T03130168  RH  042%=      5-min Rain = 0
KCL2 242325Z 16014KT 31/17 A297 RMK A01 T03100167  RH  042%=      5-min Rain = 0
KCL2 242326Z 17011G16KT 31/17 A297 RMK A01 T03090168  RH  043%=      5-min Rain = 0
KCL2 242327Z 16013KT 31/17 A297 RMK A01 T03080167  RH  043%=      5-min Rain = 0
KCL2 242328Z 17011KT 31/17 A297 RMK A01 T03070167  RH  043%=      5-min Rain = 0
KCL2 242329Z 17011KT 31/17 A297 RMK A01 T03060167  RH  043%=      5-min Rain = 0
KCL2 242330Z 17010KT 31/17 A297 RMK A01 T03060168  RH  044%=      5-min Rain = 0
KCL2 242331Z 17013KT 31/17 A297 RMK A01 T03050167  RH  043%=      5-min Rain = 0
KCL2 242332Z 16011KT 31/17 A297 RMK A01 T03050167  RH  043%=      5-min Rain = 0
KCL2 242333Z 17011KT 30/17 A2969 RMK A01 T03040166  RH  043%=      5-min Rain = 0
KCL2 242334Z 17011KT 30/17 A2969 RMK A01 T03040166  RH  043%=      5-min Rain = 0
KCL2 242335Z 16009KT 30/17 A2969 RMK A01 T03040166  RH  044%=      5-min Rain = 0
KCL2 242336Z 16008KT 30/17 A2969 RMK A01 T03040167  RH  044%=      5-min Rain = 0
KCL2 242337Z 15006KT 30/17 A2969 RMK A01 T03040168  RH  044%=      5-min Rain = 0
KCL2 242338Z 15008KT 30/17 A2969 RMK A01 T03040169  RH  044%=      5-min Rain = 0
KCL2 242339Z 15009KT 30/17 A2969 RMK A01 T03040167  RH  044%=      5-min Rain = 0
KCL2 242340Z 14008KT 30/17 A2969 RMK A01 T03040168  RH  044%=      5-min Rain = 0
KCL2 242341Z 14006KT 30/17 A2969 RMK A01 T03040168  RH  044%=      5-min Rain = 0
KCL2 242342Z 15007KT 30/17 A2969 RMK A01 T03030168  RH  044%=      5-min Rain = 0
KCL2 242343Z 15007KT 30/17 A2969 RMK A01 T03030168  RH  044%=      5-min Rain = 0
KCL2 242344Z 14011KT 30/17 A2969 RMK A01 T03030167  RH  044%=      5-min Rain = 0
KCL2 242345Z 15010KT 30/17 A2969 RMK A01 T03030165  RH  043%=      5-min Rain = 0
KCL2 242346Z 15010KT 30/17 A2969 RMK A01 T03030165  RH  043%=      5-min Rain = 0
KCL2 242347Z 15010KT 30/17 A2969 RMK A01 T03030165  RH  043%=      5-min Rain = 0
KCL2 242348Z 16007KT 30/16 A2969 RMK A01 T03020164  RH  043%=      5-min Rain = 0
KCL2 242349Z 16008KT 30/17 A2969 RMK A01 T03020166  RH  044%=      5-min Rain = 0
KCL2 242350Z 15007KT 30/17 A2969 RMK A01 T03020166  RH  044%=      5-min Rain = 0
KCL2 242351Z 16007KT 30/17 A2969 RMK A01 T03010166  RH  044%=      5-min Rain = 0
KCL2 242352Z 16005KT 30/17 A2969 RMK A01 T03010165  RH  044%=      5-min Rain = 0
KCL2 242353Z 17005KT 30/17 A2969 RMK A01 T03000167  RH  044%=      5-min Rain = 0
KCL2 242354Z 16007KT 30/17 A2969 RMK A01 T03000166  RH  045%=      5-min Rain = 0
KCL2 242355Z 15008KT 30/17 A2969 RMK A01 T02990166  RH  045%=      5-min Rain = 0
KCL2 242356Z 13012G19KT 30/17 A2969 RMK A01 T02990166  RH  045%=      5-min Rain = 0
KCL2 242357Z 12021G27KT 30/17 A297 RMK A01 T02970174  RH  048%=      5-min Rain = 0
KCL2 242358Z 11021G26KT 28/18 A297 RMK A01 T02800180  RH  054%=      5-min Rain = 0
KCL2 242359Z 10022KT 27/18 A297 RMK A01 T02670180  RH  059%=      5-min Rain = 0
KCL2 250000Z 10020G25KT 26/18 A297 RMK A01 T02580180  RH  062%=      5-min Rain = 0
KCL2 250001Z 10018KT 25/18 A297 RMK A01 T02540180  RH  064%=      5-min Rain = 0
KCL2 250002Z 10020G25KT 25/18 A297 RMK A01 T02520180  RH  064%=      5-min Rain = 0
KCL2 250003Z 10018G24KT 25/18 A297 RMK A01 T02510180  RH  065%=      5-min Rain = 0
KCL2 250004Z 11023KT 25/18 A297 RMK A01 T02490180  RH  066%=      5-min Rain = 0
KCL2 250005Z 11024G29KT 25/18 A297 RMK A01 T02480180  RH  066%=      5-min Rain = 0
KCL2 250006Z 10019G24KT 25/18 A297 RMK A01 T02470181  RH  067%=      5-min Rain = 0
KCL2 250007Z 10016KT 25/18 A2969 RMK A01 T02460181  RH  067%=      5-min Rain = 0
KCL2 250008Z 10020KT 25/18 A2969 RMK A01 T02460181  RH  067%=      5-min Rain = 0
KCL2 250009Z 10016G22KT 25/18 A297 RMK A01 T02450181  RH  067%=      5-min Rain = 0
KCL2 250010Z 11017G25KT 25/18 A2969 RMK A01 T02450181  RH  068%=      5-min Rain = 0
KCL2 250011Z 10017G22KT 24/18 A2969 RMK A01 T02440181  RH  068%=      5-min Rain = 0
KCL2 250012Z 10014G19KT 24/18 A2969 RMK A01 T02440181  RH  068%=      5-min Rain = 0
KCL2 250013Z 09014G21KT 24/18 A2969 RMK A01 T02430181  RH  068%=      5-min Rain = 0
KCL2 250014Z 10012G17KT 24/18 A2969 RMK A01 T02430182  RH  069%=      5-min Rain = 0
KCL2 250015Z 11013KT 24/18 A297 RMK A01 T02420183  RH  070%=      5-min Rain = 0
KCL2 250016Z 11013G19KT 24/18 A297 RMK A01 T02410184  RH  070%=      5-min Rain = 0
KCL2 250017Z 10012KT 24/18 A297 RMK A01 T02410184  RH  071%=      5-min Rain = 0
KCL2 250018Z 11012G17KT 24/18 A297 RMK A01 T02400184  RH  071%=      5-min Rain = 0
KCL2 250019Z 11011G18KT 24/19 A297 RMK A01 T02400185  RH  071%=      5-min Rain = 0
KCL2 250020Z 11014KT 24/19 A297 RMK A01 T02390185  RH  071%=      5-min Rain = 0
KCL2 250021Z 11011KT 24/19 A297 RMK A01 T02390185  RH  072%=      5-min Rain = 0
KCL2 250022Z 10010G15KT 24/19 A297 RMK A01 T02380185  RH  072%=      5-min Rain = 0
KCL2 250023Z 10011KT 24/19 A297 RMK A01 T02380186  RH  072%=      5-min Rain = 0
KCL2 250024Z 10013KT 24/19 A297 RMK A01 T02370186  RH  073%=      5-min Rain = 0
KCL2 250025Z 10011KT 24/19 A297 RMK A01 T02370186  RH  073%=      5-min Rain = 0
KCL2 250026Z 09011KT 24/19 A297 RMK A01 T02360186  RH  073%=      5-min Rain = 0
KCL2 250027Z 09010G15KT 24/19 A297 RMK A01 T02360186  RH  074%=      5-min Rain = 0
KCL2 250028Z 09012G19KT 24/19 A297 RMK A01 T02360186  RH  074%=      5-min Rain = 0
KCL2 250029Z 08014G20KT 24/19 A2971 RMK A01 T02360186  RH  074%=      5-min Rain = 0
KCL2 250030Z 09016G21KT 24/19 A2971 RMK A01 T02360186  RH  074%=      5-min Rain = 0
KCL2 250031Z 10013G18KT 24/19 A2971 RMK A01 T02350186  RH  074%=      5-min Rain = 0
KCL2 250032Z 12013G18KT 24/19 A2971 RMK A01 T02350186  RH  074%=      5-min Rain = 0
KCL2 250033Z 12015KT 24/19 A2972 RMK A01 T02350186  RH  074%=      5-min Rain = 0
KCL2 250034Z 12014KT 24/19 A2972 RMK A01 T02350186  RH  074%=      5-min Rain = 0
KCL2 250035Z 12014KT 24/19 A2972 RMK A01 T02350186  RH  074%=      5-min Rain = 0
KCL2 250036Z 11014KT 24/19 A2971 RMK A01 T02350186  RH  074%=      5-min Rain = 0
KCL2 250037Z 11017KT 24/19 A2971 RMK A01 T02350185  RH  074%=      5-min Rain = 0
KCL2 250038Z 12014KT 24/19 A2971 RMK A01 T02350186  RH  074%=      5-min Rain = 0
KCL2 250039Z 11016G22KT 23/19 A2971 RMK A01 T02340185  RH  074%=      5-min Rain = 0
KCL2 250040Z 12014KT 23/19 A2971 RMK A01 T02340185  RH  074%=      5-min Rain = 0
KCL2 250041Z 11012KT 23/19 A2971 RMK A01 T02340185  RH  074%=      5-min Rain = 0
KCL2 250042Z 11015KT 23/19 A297 RMK A01 T02330185  RH  074%=      5-min Rain = 0
KCL2 250043Z 11013G18KT 23/18 A297 RMK A01 T02320184  RH  074%=      5-min Rain = 0
KCL2 250044Z 11012G17KT 23/19 A297 RMK A01 T02320185  RH  074%=      5-min Rain = 0
KCL2 250045Z 11016KT 23/18 A297 RMK A01 T02320184  RH  074%=      5-min Rain = 0
KCL2 250046Z 11015KT 23/18 A297 RMK A01 T02320183  RH  074%=      5-min Rain = 0
KCL2 250047Z 11015G21KT 23/18 A297 RMK A01 T02310184  RH  075%=      5-min Rain = 0
KCL2 250048Z 10018KT 23/18 A297 RMK A01 T02300184  RH  075%=      5-min Rain = 0
KCL2 250049Z 10014G19KT 23/18 A297 RMK A01 T02290184  RH  076%=      5-min Rain = 0
KCL2 250050Z 12012KT 23/19 A2971 RMK A01 T02280185  RH  076%=      5-min Rain = 0
KCL2 250051Z 12013G18KT 23/19 A2971 RMK A01 T02280185  RH  076%=      5-min Rain = 0
KCL2 250052Z 13014KT 23/18 A2971 RMK A01 T02280184  RH  077%=      5-min Rain = 0
KCL2 250053Z 11012KT 23/18 A2971 RMK A01 T02270184  RH  077%=      5-min Rain = 0
KCL2 250054Z 12012KT 23/18 A2971 RMK A01 T02260184  RH  077%=      5-min Rain = 0
KCL2 250055Z 13014G19KT 23/18 A2971 RMK A01 T02260184  RH  077%=      5-min Rain = 0
KCL2 250056Z 13015KT 23/18 A297 RMK A01 T02250183  RH  077%=      5-min Rain = 0
KCL2 250057Z 12012KT 22/18 A297 RMK A01 T02240182  RH  077%=      5-min Rain = 0
KCL2 250058Z 13011KT 22/18 A297 RMK A01 T02240182  RH  077%=      5-min Rain = 0
KCL2 250059Z 12013KT 22/18 A297 RMK A01 T02230182  RH  078%=      5-min Rain = 0
KCL2 250100Z 12010KT 22/18 A297 RMK A01 T02220182  RH  078%=      5-min Rain = 0
KCL2 250101Z 13011KT 22/18 A2969 RMK A01 T02220182  RH  078%=      5-min Rain = 0
KCL2 250102Z 12011KT 22/18 A2969 RMK A01 T02210182  RH  078%=      5-min Rain = 0
KCL2 250103Z 12011KT 22/18 A2969 RMK A01 T02210182  RH  078%=      5-min Rain = 0
KCL2 250104Z 13009KT 22/18 A2969 RMK A01 T02210182  RH  079%=      5-min Rain = 0
KCL2 250105Z 12010G16KT 22/18 A2969 RMK A01 T02210182  RH  079%=      5-min Rain = 0
KCL2 250106Z 12013KT 22/18 A2969 RMK A01 T02210182  RH  078%=      5-min Rain = 0
KCL2 250107Z 12011KT 22/18 A2969 RMK A01 T02200181  RH  078%=      5-min Rain = 0
KCL2 250108Z 11010KT 22/18 A2969 RMK A01 T02200181  RH  078%=      5-min Rain = 0
KCL2 250109Z 11010KT 22/18 A2969 RMK A01 T02200181  RH  078%=      5-min Rain = 0
KCL2 250110Z 11013KT 22/18 A2969 RMK A01 T02200180  RH  078%=      5-min Rain = 0
KCL2 250111Z 12011KT 22/18 A2969 RMK A01 T02190179  RH  078%=      5-min Rain = 0
KCL2 250112Z 12008KT 22/18 A2969 RMK A01 T02190180  RH  078%=      5-min Rain = 0
KCL2 250113Z 12011KT 22/18 A2969 RMK A01 T02190179  RH  078%=      5-min Rain = 0
KCL2 250114Z 12015KT 22/18 A2969 RMK A01 T02190177  RH  077%=      5-min Rain = 0
KCL2 250115Z 12013KT 22/18 A2969 RMK A01 T02190175  RH  076%=      5-min Rain = 0
KCL2 250116Z 12011KT 22/17 A2969 RMK A01 T02190174  RH  076%=      5-min Rain = 0
KCL2 250117Z 12013KT 22/17 A2969 RMK A01 T02190174  RH  075%=      5-min Rain = 0
KCL2 250118Z 12014KT 22/17 A297 RMK A01 T02190173  RH  075%=      5-min Rain = 0
KCL2 250119Z 12010KT 22/17 A297 RMK A01 T02190173  RH  075%=      5-min Rain = 0
KCL2 250120Z 12011G17KT 22/17 A297 RMK A01 T02190174  RH  075%=      5-min Rain = 0
KCL2 250121Z 13014KT 22/17 A297 RMK A01 T02190172  RH  075%=      5-min Rain = 0
KCL2 250122Z 12013KT 22/17 A297 RMK A01 T02200173  RH  075%=      5-min Rain = 0
KCL2 250123Z 12013KT 22/17 A297 RMK A01 T02200173  RH  075%=      5-min Rain = 0
KCL2 250124Z 12012KT 22/17 A2971 RMK A01 T02200173  RH  075%=      5-min Rain = 0
KCL2 250125Z 12015KT 22/17 A2971 RMK A01 T02190173  RH  075%=      5-min Rain = 0
KCL2 250126Z 12014KT 22/17 A2971 RMK A01 T02200172  RH  074%=      5-min Rain = 0
KCL2 250127Z 12012KT 22/17 A2971 RMK A01 T02190169  RH  073%=      5-min Rain = 0
KCL2 250128Z 13016KT 22/17 A2971 RMK A01 T02200168  RH  072%=      5-min Rain = 0
KCL2 250129Z 12013KT 22/17 A2971 RMK A01 T02200165  RH  071%=      5-min Rain = 0
KCL2 250130Z 12013KT 22/17 A2972 RMK A01 T02200166  RH  072%=      5-min Rain = 0
KCL2 250131Z 12013KT 22/17 A2972 RMK A01 T02200168  RH  072%=      5-min Rain = 0
KCL2 250132Z 12010KT 22/17 A2972 RMK A01 T02200169  RH  073%=      5-min Rain = 0
KCL2 250133Z 12010KT 22/17 A2972 RMK A01 T02200169  RH  073%=      5-min Rain = 0
KCL2 250134Z 12010KT 22/17 A2972 RMK A01 T02190169  RH  073%=      5-min Rain = 0
KCL2 250135Z 11010KT 22/17 A2972 RMK A01 T02200169  RH  073%=      5-min Rain = 0
KCL2 250136Z 11011KT 22/17 A2973 RMK A01 T02200170  RH  074%=      5-min Rain = 0
KCL2 250137Z 13011KT 22/17 A2974 RMK A01 T02190171  RH  074%=      5-min Rain = 0
KCL2 250138Z 17012KT 22/17 A2975 RMK A01 T02190171  RH  074%=      5-min Rain = 0
KCL2 250139Z 18014KT 22/17 A2976 RMK A01 T02190167  RH  072%=      5-min Rain = 0
KCL2 250140Z 16013KT 22/17 A2977 RMK A01 T02190165  RH  071%=      5-min Rain = 0
KCL2 250141Z 17014KT 22/16 A2977 RMK A01 T02200162  RH  070%=      5-min Rain = 0
KCL2 250142Z 18015G20KT 22/16 A2977 RMK A01 T02190160  RH  069%=      5-min Rain = 0
KCL2 250143Z 21010KT 22/16 A2977 RMK A01 T02170159  RH  070%=      5-min Rain = 0
KCL2 250144Z 24013G20KT 22/15 A2977 RMK A01 T02150150  RH  066%=      5-min Rain = 0
KCL2 250145Z 23022G31KT 22/14 A2977 RMK A01 T02150141  RH  063%=      5-min Rain = 0
KCL2 250146Z 23018KT 21/14 A2977 RMK A01 T02130141  RH  064%=      5-min Rain = 0
KCL2 250147Z 25018G23KT 21/14 A2977 RMK A01 T02110141  RH  064%=      5-min Rain = 0
KCL2 250148Z 25018KT 21/14 A2977 RMK A01 T02090143  RH  066%=      5-min Rain = 0
KCL2 250149Z 25019KT 21/15 A2977 RMK A01 T02070145  RH  068%=      5-min Rain = 0
KCL2 250150Z 25019KT 20/15 A2977 RMK A01 T02030147  RH  070%=      5-min Rain = 0
KCL2 250151Z 24018G26KT 20/15 A2977 RMK A01 T01990150  RH  073%=      5-min Rain = 0
KCL2 250152Z 23016G23KT 20/15 A2978 RMK A01 T01960153  RH  076%=      5-min Rain = 0
KCL2 250153Z 25014G19KT 19/16 A2979 RMK A01 T01930155  RH  078%=      5-min Rain = 0
KCL2 250154Z 22014G21KT 19/16 A2979 RMK A01 T01900155  RH  080%=      5-min Rain = 0
KCL2 250155Z 22016KT 19/16 A298 RMK A01 T01880155  RH  081%=      5-min Rain = 0
KCL2 250156Z 22015KT 19/16 A298 RMK A01 T01870156  RH  082%=      5-min Rain = 0
KCL2 250157Z 22016KT 19/16 A2981 RMK A01 T01860157  RH  083%=      5-min Rain = 0
KCL2 250158Z 22016KT 19/16 A2981 RMK A01 T01850159  RH  085%=      5-min Rain = 0
KCL2 250159Z 22014KT 18/16 A2982 RMK A01 T01820159  RH  086%=      5-min Rain = 0.01
KCL2 250200Z 22014KT 18/16 A2982 RMK A01 T01800161  RH  088%=      5-min Rain = 0.01
KCL2 250201Z 23012KT 18/16 A2982 RMK A01 T01780161  RH  090%=      5-min Rain = 0.01
KCL2 250202Z 24009KT 18/16 A2982 RMK A01 T01770161  RH  091%=      5-min Rain = 0.02
KCL2 250203Z 24010KT 18/16 A2981 RMK A01 T01750162  RH  092%=      5-min Rain = 0.03
KCL2 250204Z 23010KT 17/16 A2981 RMK A01 T01740162  RH  092%=      5-min Rain = 0.04
KCL2 250205Z 23009KT 17/16 A2981 RMK A01 T01730162  RH  093%=      5-min Rain = 0.03
KCL2 250206Z 23010KT 17/16 A2981 RMK A01 T01720162  RH  094%=      5-min Rain = 0.03
KCL2 250207Z 23013KT 17/16 A2981 RMK A01 T01720162  RH  094%=      5-min Rain = 0.02
KCL2 250208Z 23011KT 17/16 A298 RMK A01 T01710162  RH  095%=      5-min Rain = 0.01
KCL2 250209Z 22012KT 17/16 A298 RMK A01 T01700162  RH  095%=      5-min Rain = 0
KCL2 250210Z 22012KT 17/16 A298 RMK A01 T01700162  RH  095%=      5-min Rain = 0.01
KCL2 250211Z 22015G20KT 17/16 A298 RMK A01 T01690160  RH  094%=      5-min Rain = 0
KCL2 250212Z 22013G19KT 17/16 A298 RMK A01 T01690159  RH  094%=      5-min Rain = 0.01
KCL2 250213Z 22015KT 17/16 A298 RMK A01 T01690157  RH  093%=      5-min Rain = 0
KCL2 250214Z 22014KT 17/16 A298 RMK A01 T01690157  RH  092%=      5-min Rain = 0.01
KCL2 250215Z 22014KT 17/16 A298 RMK A01 T01690157  RH  092%=      5-min Rain = 0.01
KCL2 250216Z 22013KT 17/16 A298 RMK A01 T01690157  RH  093%=      5-min Rain = 0.01
KCL2 250217Z 21012KT 17/16 A298 RMK A01 T01700158  RH  093%=      5-min Rain = 0.01
KCL2 250218Z 22012KT 17/16 A298 RMK A01 T01690158  RH  093%=      5-min Rain = 0.01
KCL2 250219Z 21010KT 17/16 A298 RMK A01 T01690159  RH  094%=      5-min Rain = 0.01
KCL2 250220Z 21010KT 17/16 A298 RMK A01 T01690160  RH  095%=      5-min Rain = 0.02
KCL2 250221Z 21010KT 17/16 A298 RMK A01 T01680160  RH  095%=      5-min Rain = 0.01
KCL2 250222Z 19011KT 17/16 A298 RMK A01 T01680160  RH  095%=      5-min Rain = 0.02
KCL2 250223Z 19010KT 17/16 A298 RMK A01 T01680160  RH  095%=      5-min Rain = 0
KCL2 250224Z 17009KT 17/16 A298 RMK A01 T01680160  RH  095%=      5-min Rain = 0.01
KCL2 250225Z 17008KT 17/16 A298 RMK A01 T01680161  RH  096%=      5-min Rain = 0
KCL2 250226Z 19009KT 17/16 A2979 RMK A01 T01670161  RH  096%=      5-min Rain = 0.01
KCL2 250227Z 21007KT 17/16 A2979 RMK A01 T01680161  RH  096%=      5-min Rain = 0
KCL2 250228Z 22009KT 17/16 A2979 RMK A01 T01670161  RH  096%=      5-min Rain = 0
KCL2 250229Z 21010KT 17/16 A2978 RMK A01 T01680161  RH  096%=      5-min Rain = 0
KCL2 250230Z 21012KT 17/16 A2978 RMK A01 T01680161  RH  096%=      5-min Rain = 0
KCL2 250231Z 21014KT 17/16 A2978 RMK A01 T01680160  RH  095%=      5-min Rain = 0
KCL2 250232Z 21012KT 17/16 A2978 RMK A01 T01680159  RH  095%=      5-min Rain = 0
KCL2 250233Z 20012KT 17/16 A2978 RMK A01 T01680158  RH  094%=      5-min Rain = 0
KCL2 250234Z 21010KT 17/16 A2979 RMK A01 T01690158  RH  093%=      5-min Rain = 0
KCL2 250235Z 22012KT 17/16 A2978 RMK A01 T01690157  RH  093%=      5-min Rain = 0.01
KCL2 250236Z 20013KT 17/16 A2978 RMK A01 T01700156  RH  092%=      5-min Rain = 0
KCL2 250237Z 20012KT 17/16 A2979 RMK A01 T01710155  RH  090%=      5-min Rain = 0
KCL2 250238Z 21011KT 17/16 A2979 RMK A01 T01720156  RH  090%=      5-min Rain = 0
KCL2 250239Z 20010KT 17/16 A2979 RMK A01 T01720157  RH  090%=      5-min Rain = 0
KCL2 250240Z 20010KT 17/16 A2979 RMK A01 T01720157  RH  091%=      5-min Rain = 0
KCL2 250241Z 19010KT 17/16 A2979 RMK A01 T01720158  RH  091%=      5-min Rain = 0
KCL2 250242Z 19009KT 17/16 A298 RMK A01 T01720157  RH  091%=      5-min Rain = 0
KCL2 250243Z 19008KT 17/16 A298 RMK A01 T01720157  RH  091%=      5-min Rain = 0
KCL2 250244Z 18007KT 17/16 A298 RMK A01 T01710157  RH  091%=      5-min Rain = 0
KCL2 250245Z 18006KT 17/16 A298 RMK A01 T01720158  RH  092%=      5-min Rain = 0.01
KCL2 250246Z 18008KT 17/16 A298 RMK A01 T01720158  RH  092%=      5-min Rain = 0
KCL2 250247Z 17006KT 17/16 A298 RMK A01 T01720159  RH  092%=      5-min Rain = 0
KCL2 250248Z 18006KT 17/16 A298 RMK A01 T01720160  RH  093%=      5-min Rain = 0
KCL2 250249Z 19007KT 17/16 A298 RMK A01 T01720161  RH  093%=      5-min Rain = 0
KCL2 250250Z 20007KT 17/16 A298 RMK A01 T01720161  RH  093%=      5-min Rain = 0
KCL2 250251Z 21008KT 17/16 A298 RMK A01 T01720160  RH  093%=      5-min Rain = 0
KCL2 250252Z 21007KT 17/16 A298 RMK A01 T01720159  RH  092%=      5-min Rain = 0
KCL2 250253Z 21006KT 17/16 A298 RMK A01 T01720159  RH  092%=      5-min Rain = 0.01
KCL2 250254Z 21006KT 17/16 A298 RMK A01 T01720158  RH  092%=      5-min Rain = 0
KCL2 250255Z 20004KT 17/16 A2981 RMK A01 T01720158  RH  091%=      5-min Rain = 0
KCL2 250256Z 21005KT 17/16 A2981 RMK A01 T01730158  RH  091%=      5-min Rain = 0
KCL2 250257Z 22005KT 17/16 A2981 RMK A01 T01730158  RH  091%=      5-min Rain = 0
KCL2 250258Z 23005KT 17/16 A2981 RMK A01 T01730159  RH  091%=      5-min Rain = 0.01
KCL2 250259Z 24004KT 17/16 A2981 RMK A01 T01730159  RH  092%=      5-min Rain = 0
KCL2 250300Z 25005KT 17/16 A2981 RMK A01 T01720159  RH  092%=      5-min Rain = 0
KCL2 250301Z 27005KT 17/16 A2981 RMK A01 T01720159  RH  092%=      5-min Rain = 0
KCL2 250302Z 28005KT 17/16 A2981 RMK A01 T01720160  RH  093%=      5-min Rain = 0.01
KCL2 250303Z 29005KT 17/16 A2981 RMK A01 T01710160  RH  093%=      5-min Rain = 0
KCL2 250304Z 30006KT 17/16 A2981 RMK A01 T01710161  RH  094%=      5-min Rain = 0
KCL2 250305Z 31006KT 17/16 A2981 RMK A01 T01710162  RH  094%=      5-min Rain = 0
KCL2 250306Z 32006KT 17/16 A2981 RMK A01 T01710162  RH  094%=      5-min Rain = 0.01
KCL2 250307Z 32007KT 17/16 A2981 RMK A01 T01710162  RH  095%=      5-min Rain = 0
KCL2 250308Z 32007KT 17/16 A2981 RMK A01 T01700162  RH  095%=      5-min Rain = 0
KCL2 250309Z 32006KT 17/16 A2982 RMK A01 T01700162  RH  095%=      5-min Rain = 0
KCL2 250310Z 31006KT 17/16 A2982 RMK A01 T01700162  RH  095%=      5-min Rain = 0.01
KCL2 250311Z 32004KT 17/16 A2982 RMK A01 T01700161  RH  094%=      5-min Rain = 0
KCL2 250312Z 31003KT 17/16 A2982 RMK A01 T01700162  RH  095%=      5-min Rain = 0.01
KCL2 250313Z 30003KT 17/16 A2982 RMK A01 T01710162  RH  094%=      5-min Rain = 0
KCL2 250314Z 31005KT 17/16 A2983 RMK A01 T01710161  RH  094%=      5-min Rain = 0
KCL2 250315Z 31005KT 17/16 A2983 RMK A01 T01710160  RH  094%=      5-min Rain = 0.01
KCL2 250316Z 32005KT 17/16 A2983 RMK A01 T01710160  RH  093%=      5-min Rain = 0
KCL2 250317Z 33005KT 17/16 A2983 RMK A01 T01710160  RH  093%=      5-min Rain = 0.01
KCL2 250318Z 34005KT 17/16 A2983 RMK A01 T01710160  RH  093%=      5-min Rain = 0
KCL2 250319Z 34005KT 17/16 A2983 RMK A01 T01710161  RH  094%=      5-min Rain = 0.01
KCL2 250320Z 35005KT 17/16 A2984 RMK A01 T01710162  RH  095%=      5-min Rain = 0
KCL2 250321Z 35005KT 17/16 A2984 RMK A01 T01710163  RH  095%=      5-min Rain = 0
KCL2 250322Z 35006KT 17/16 A2984 RMK A01 T01710164  RH  096%=      5-min Rain = 0.01
KCL2 250323Z 35006KT 17/16 A2984 RMK A01 T01700164  RH  096%=      5-min Rain = 0
KCL2 250324Z 35007KT 17/16 A2984 RMK A01 T01700164  RH  096%=      5-min Rain = 0
KCL2 250325Z 35007KT 17/16 A2984 RMK A01 T01700164  RH  096%=      5-min Rain = 0.01
KCL2 250326Z 34008KT 17/16 A2984 RMK A01 T01690163  RH  096%=      5-min Rain = 0
KCL2 250327Z 34008KT 17/16 A2984 RMK A01 T01690163  RH  096%=      5-min Rain = 0
KCL2 250328Z 34010KT 17/16 A2985 RMK A01 T01690163  RH  096%=      5-min Rain = 0.01
KCL2 250329Z 34012KT 17/16 A2985 RMK A01 T01690163  RH  096%=      5-min Rain = 0
KCL2 250330Z 34011KT 17/16 A2985 RMK A01 T01690164  RH  096%=      5-min Rain = 0
KCL2 250331Z 34013KT 17/16 A2985 RMK A01 T01690163  RH  096%=      5-min Rain = 0.01
KCL2 250332Z 33013KT 17/16 A2985 RMK A01 T01690163  RH  096%=      5-min Rain = 0
KCL2 250333Z 34012KT 17/16 A2985 RMK A01 T01690163  RH  096%=      5-min Rain = 0
KCL2 250334Z 34012KT 17/16 A2985 RMK A01 T01690162  RH  096%=      5-min Rain = 0.01
KCL2 250335Z 34011KT 17/16 A2985 RMK A01 T01680162  RH  096%=      5-min Rain = 0
KCL2 250336Z 34011KT 17/16 A2985 RMK A01 T01680162  RH  096%=      5-min Rain = 0.01
KCL2 250337Z 35010KT 17/16 A2986 RMK A01 T01690163  RH  096%=      5-min Rain = 0
KCL2 250338Z 35009KT 17/16 A2986 RMK A01 T01690163  RH  096%=      5-min Rain = 0.01
KCL2 250339Z 35011KT 17/16 A2986 RMK A01 T01680163  RH  097%=      5-min Rain = 0
KCL2 250340Z 35009KT 17/16 A2986 RMK A01 T01680163  RH  096%=      5-min Rain = 0.01
KCL2 250341Z 35009KT 17/16 A2986 RMK A01 T01680162  RH  097%=      5-min Rain = 0
KCL2 250342Z 35009KT 17/16 A2986 RMK A01 T01680163  RH  097%=      5-min Rain = 0.01
KCL2 250343Z 35008KT 17/16 A2986 RMK A01 T01680163  RH  097%=      5-min Rain = 0
KCL2 250344Z 34008KT 17/16 A2986 RMK A01 T01680163  RH  097%=      5-min Rain = 0.01
KCL2 250345Z 34008KT 17/16 A2986 RMK A01 T01680163  RH  097%=      5-min Rain = 0.01
KCL2 250346Z 34009KT 17/16 A2986 RMK A01 T01680163  RH  097%=      5-min Rain = 0
KCL2 250347Z 34010KT 17/16 A2986 RMK A01 T01670162  RH  097%=      5-min Rain = 0
KCL2 250348Z 34010KT 17/16 A2986 RMK A01 T01670162  RH  097%=      5-min Rain = 0.01
KCL2 250349Z 34010KT 17/16 A2986 RMK A01 T01670162  RH  096%=      5-min Rain = 0
KCL2 250350Z 34011KT 17/16 A2986 RMK A01 T01680162  RH  096%=      5-min Rain = 0.01
KCL2 250351Z 34009KT 17/16 A2986 RMK A01 T01670161  RH  096%=      5-min Rain = 0.01
KCL2 250352Z 34010KT 17/16 A2986 RMK A01 T01670161  RH  096%=      5-min Rain = 0.01
KCL2 250353Z 33011KT 17/16 A2986 RMK A01 T01670161  RH  096%=      5-min Rain = 0
KCL2 250354Z 34010KT 17/16 A2986 RMK A01 T01670160  RH  096%=      5-min Rain = 0.01
KCL2 250355Z 33011KT 17/16 A2986 RMK A01 T01670161  RH  096%=      5-min Rain = 0.01
KCL2 250356Z 33009KT 17/16 A2986 RMK A01 T01660160  RH  096%=      5-min Rain = 0
KCL2 250357Z 34008KT 17/16 A2986 RMK A01 T01660161  RH  096%=      5-min Rain = 0.01
KCL2 250358Z 33009KT 17/16 A2986 RMK A01 T01660161  RH  097%=      5-min Rain = 0.01
KCL2 250359Z 34009KT 17/16 A2986 RMK A01 T01660161  RH  097%=      5-min Rain = 0
KCL2 250400Z 34008KT 17/16 A2986 RMK A01 T01660161  RH  097%=      5-min Rain = 0.01
KCL2 250401Z 34009KT 17/16 A2986 RMK A01 T01650161  RH  097%=      5-min Rain = 0.01
KCL2 250402Z 34007KT 17/16 A2986 RMK A01 T01650161  RH  097%=      5-min Rain = 0.01
KCL2 250403Z 34008KT 17/16 A2986 RMK A01 T01650161  RH  097%=      5-min Rain = 0.01
KCL2 250404Z 34008KT 17/16 A2986 RMK A01 T01650161  RH  098%=      5-min Rain = 0.01
KCL2 250405Z 34008KT 17/16 A2986 RMK A01 T01650162  RH  098%=      5-min Rain = 0.01
KCL2 250406Z 35008KT 17/16 A2986 RMK A01 T01650162  RH  098%=      5-min Rain = 0
KCL2 250407Z 35008KT 17/16 A2985 RMK A01 T01650162  RH  098%=      5-min Rain = 0.01
KCL2 250408Z 00009KT 17/16 A2985 RMK A01 T01650162  RH  098%=      5-min Rain = 0.01
KCL2 250409Z 00010KT 17/16 A2985 RMK A01 T01650162  RH  098%=      5-min Rain = 0.01
KCL2 250410Z 00011KT 17/16 A2984 RMK A01 T01650162  RH  098%=      5-min Rain = 0.01
KCL2 250411Z 00013KT 17/16 A2984 RMK A01 T01650162  RH  098%=      5-min Rain = 0.01
KCL2 250412Z 00013KT 17/16 A2984 RMK A01 T01650162  RH  098%=      5-min Rain = 0.01
KCL2 250413Z 00012KT 17/16 A2983 RMK A01 T01650163  RH  098%=      5-min Rain = 0.01
KCL2 250414Z 01012KT 17/16 A2983 RMK A01 T01650163  RH  098%=      5-min Rain = 0.01
KCL2 250415Z 00011KT 17/16 A2983 RMK A01 T01650163  RH  098%=      5-min Rain = 0.01
KCL2 250416Z 00013KT 17/16 A2982 RMK A01 T01650163  RH  098%=      5-min Rain = 0.01
KCL2 250417Z 00012KT 17/16 A2982 RMK A01 T01650163  RH  098%=      5-min Rain = 0.01
KCL2 250418Z 01011KT 17/16 A2982 RMK A01 T01650163  RH  098%=      5-min Rain = 0
KCL2 250419Z 00011KT 17/16 A2983 RMK A01 T01650162  RH  098%=      5-min Rain = 0.01
KCL2 250420Z 01009KT 17/16 A2983 RMK A01 T01650162  RH  098%=      5-min Rain = 0
KCL2 250421Z 01011KT 17/16 A2983 RMK A01 T01650162  RH  098%=      5-min Rain = 0.01
KCL2 250422Z 01012KT 17/16 A2983 RMK A01 T01650161  RH  097%=      5-min Rain = 0
KCL2 250423Z 02009KT 17/16 A2983 RMK A01 T01660161  RH  097%=      5-min Rain = 0
KCL2 250424Z 01010KT 17/16 A2984 RMK A01 T01650160  RH  097%=      5-min Rain = 0.01
KCL2 250425Z 02010KT 17/16 A2984 RMK A01 T01650159  RH  096%=      5-min Rain = 0
KCL2 250426Z 02008KT 17/16 A2984 RMK A01 T01660159  RH  096%=      5-min Rain = 0
KCL2 250427Z 02007KT 17/16 A2984 RMK A01 T01660159  RH  096%=      5-min Rain = 0.01
KCL2 250428Z 01009KT 17/16 A2984 RMK A01 T01660160  RH  096%=      5-min Rain = 0
KCL2 250429Z 00008KT 17/16 A2984 RMK A01 T01660159  RH  096%=      5-min Rain = 0
KCL2 250430Z 01007KT 17/16 A2985 RMK A01 T01660159  RH  096%=      5-min Rain = 0
KCL2 250431Z 00008KT 17/16 A2985 RMK A01 T01660159  RH  096%=      5-min Rain = 0.01
KCL2 250432Z 36011KT 17/16 A2985 RMK A01 T01660159  RH  096%=      5-min Rain = 0
KCL2 250433Z 36011KT 17/16 A2985 RMK A01 T01660158  RH  095%=      5-min Rain = 0
KCL2 250434Z 36009KT 17/16 A2985 RMK A01 T01660157  RH  095%=      5-min Rain = 0
KCL2 250435Z 35008KT 17/16 A2986 RMK A01 T01660157  RH  094%=      5-min Rain = 0.01
KCL2 250436Z 35008KT 17/16 A2986 RMK A01 T01660158  RH  094%=      5-min Rain = 0
KCL2 250437Z 34008KT 17/16 A2986 RMK A01 T01660158  RH  095%=      5-min Rain = 0
KCL2 250438Z 34008KT 17/16 A2986 RMK A01 T01660158  RH  095%=      5-min Rain = 0
KCL2 250439Z 34008KT 17/16 A2986 RMK A01 T01660158  RH  095%=      5-min Rain = 0
KCL2 250440Z 33009KT 17/16 A2987 RMK A01 T01660158  RH  095%=      5-min Rain = 0
KCL2 250441Z 34007KT 17/16 A2987 RMK A01 T01660158  RH  095%=      5-min Rain = 0
KCL2 250442Z 33006KT 17/16 A2987 RMK A01 T01660158  RH  095%=      5-min Rain = 0.01
KCL2 250443Z 34006KT 17/16 A2987 RMK A01 T01650158  RH  095%=      5-min Rain = 0
KCL2 250444Z 34007KT 17/16 A2987 RMK A01 T01650158  RH  096%=      5-min Rain = 0
KCL2 250445Z 35008KT 17/16 A2987 RMK A01 T01650158  RH  096%=      5-min Rain = 0.01
KCL2 250446Z 35007KT 17/16 A2987 RMK A01 T01650158  RH  095%=      5-min Rain = 0
KCL2 250447Z 35006KT 17/16 A2987 RMK A01 T01650158  RH  096%=      5-min Rain = 0.01
KCL2 250448Z 36006KT 17/16 A2987 RMK A01 T01650158  RH  096%=      5-min Rain = 0
KCL2 250449Z 36005KT 17/16 A2987 RMK A01 T01650159  RH  096%=      5-min Rain = 0.01
KCL2 250450Z 36005KT 17/16 A2987 RMK A01 T01650159  RH  096%=      5-min Rain = 0
KCL2 250451Z 00005KT 17/16 A2987 RMK A01 T01650159  RH  096%=      5-min Rain = 0
KCL2 250452Z 36006KT 17/16 A2987 RMK A01 T01650160  RH  096%=      5-min Rain = 0.01
KCL2 250453Z 36005KT 17/16 A2987 RMK A01 T01650160  RH  097%=      5-min Rain = 0
KCL2 250454Z 36007KT 17/16 A2987 RMK A01 T01650160  RH  097%=      5-min Rain = 0.01
KCL2 250455Z 01006KT 17/16 A2987 RMK A01 T01650160  RH  097%=      5-min Rain = 0
KCL2 250456Z 00006KT 17/16 A2987 RMK A01 T01650160  RH  097%=      5-min Rain = 0.01
KCL2 250457Z 02004KT 17/16 A2987 RMK A01 T01650160  RH  097%=      5-min Rain = 0
KCL2 250458Z 02006KT 17/16 A2987 RMK A01 T01650160  RH  096%=      5-min Rain = 0.01
KCL2 250459Z 02005KT 17/16 A2987 RMK A01 T01650160  RH  096%=      5-min Rain = 0.01

Page generated in 0.1483 seconds.